Time,TemperatureF,DewpointF,PressureIn,WindDirection,WindDirectionDegrees,WindSpeedMPH,WindSpeedGustMPH,Humidity,HourlyPrecipIn,Conditions,Clouds,dailyrainin,SoftwareType,DateUTC
2013-01-13 00:03:00,70.4,66.7,29.87,East,80,2.0,-999.0,88,0.00,,,0.00,PyWeather,2013-01-13 10:03:00,
2013-01-13 00:09:00,70.5,66.8,29.87,East,80,2.0,-999.0,88,0.00,,,0.00,PyWeather,2013-01-13 10:09:00,
2013-01-13 00:14:00,70.5,66.8,29.87,East,83,3.0,-999.0,88,0.00,,,0.00,PyWeather,2013-01-13 10:14:00,
2013-01-13 00:19:00,70.7,66.6,29.87,East,94,4.0,-999.0,87,0.00,,,0.00,PyWeather,2013-01-13 10:19:00,
2013-01-13 00:25:00,70.9,66.8,29.87,ENE,77,5.0,-999.0,87,0.00,,,0.00,PyWeather,2013-01-13 10:25:00,
2013-01-13 00:26:00,70.9,66.8,29.87,ENE,75,1.0,-999.0,87,0.00,,,0.00,PyWeather,2013-01-13 10:26:00,
2013-01-13 00:27:00,70.9,66.8,29.87,ENE,74,1.0,-999.0,87,0.00,,,0.00,PyWeather,2013-01-13 10:27:00,
2013-01-13 00:28:00,70.9,66.8,29.87,ENE,74,1.0,-999.0,87,0.00,,,0.00,PyWeather,2013-01-13 10:28:00,
2013-01-13 00:29:00,70.9,66.8,29.87,ENE,74,0.0,-999.0,87,0.00,,,0.00,PyWeather,2013-01-13 10:29:00,
2013-01-13 00:30:00,71.0,66.9,29.87,ENE,73,5.0,-999.0,87,0.00,,,0.00,PyWeather,2013-01-13 10:30:00,
2013-01-13 00:31:00,70.9,66.8,29.87,ENE,75,0.0,-999.0,87,0.00,,,0.00,PyWeather,2013-01-13 10:31:00,
2013-01-13 00:32:00,70.8,66.7,29.87,ENE,75,0.0,-999.0,87,0.00,,,0.00,PyWeather,2013-01-13 10:32:00,
2013-01-13 00:33:00,70.8,66.7,29.87,ENE,74,0.0,-999.0,87,0.00,,,0.00,PyWeather,2013-01-13 10:33:00,
2013-01-13 00:34:00,70.9,66.8,29.87,ENE,74,0.0,-999.0,87,0.00,,,0.00,PyWeather,2013-01-13 10:34:00,
2013-01-13 00:35:00,71.0,66.9,29.87,ENE,74,3.0,-999.0,87,0.00,,,0.00,PyWeather,2013-01-13 10:35:00,
2013-01-13 00:36:00,70.8,66.7,29.87,ENE,74,0.0,-999.0,87,0.00,,,0.00,PyWeather,2013-01-13 10:36:00,
2013-01-13 00:38:00,70.8,66.7,29.87,ENE,74,0.0,-999.0,87,0.00,,,0.00,PyWeather,2013-01-13 10:38:00,
2013-01-13 00:39:00,70.8,66.7,29.87,ENE,74,0.0,-999.0,87,0.00,,,0.00,PyWeather,2013-01-13 10:39:00,
2013-01-13 00:41:00,70.9,66.8,29.87,ENE,74,1.0,-999.0,87,0.00,,,0.00,PyWeather,2013-01-13 10:41:00,
2013-01-13 00:42:00,70.8,66.7,29.87,ENE,75,0.0,-999.0,87,0.00,,,0.00,PyWeather,2013-01-13 10:42:00,
2013-01-13 00:43:00,70.8,66.7,29.87,ENE,74,0.0,-999.0,87,0.00,,,0.00,PyWeather,2013-01-13 10:43:00,
2013-01-13 00:44:00,70.8,66.7,29.87,ENE,75,0.0,-999.0,87,0.00,,,0.00,PyWeather,2013-01-13 10:44:00,
2013-01-13 00:46:00,70.9,66.8,29.87,ENE,74,0.0,-999.0,87,0.00,,,0.00,PyWeather,2013-01-13 10:46:00,
2013-01-13 00:48:00,70.8,66.7,29.87,ENE,74,0.0,-999.0,87,0.00,,,0.00,PyWeather,2013-01-13 10:48:00,
2013-01-13 00:49:00,70.8,66.7,29.87,ENE,74,0.0,-999.0,87,0.00,,,0.00,PyWeather,2013-01-13 10:49:00,
2013-01-13 00:50:00,70.7,66.6,29.87,ENE,74,0.0,-999.0,87,0.00,,,0.00,PyWeather,2013-01-13 10:50:00,
2013-01-13 00:51:00,70.6,66.5,29.87,ENE,75,0.0,-999.0,87,0.00,,,0.00,PyWeather,2013-01-13 10:51:00,
2013-01-13 00:52:00,70.8,66.7,29.87,ENE,75,0.0,-999.0,87,0.00,,,0.00,PyWeather,2013-01-13 10:52:00,
2013-01-13 00:53:00,70.5,66.1,29.87,ENE,74,0.0,-999.0,86,0.00,,,0.00,PyWeather,2013-01-13 10:53:00,
2013-01-13 00:54:00,70.4,66.0,29.87,ENE,74,0.0,-999.0,86,0.00,,,0.00,PyWeather,2013-01-13 10:54:00,
2013-01-13 00:57:00,70.8,66.7,29.87,ENE,75,0.0,-999.0,87,0.00,,,0.00,PyWeather,2013-01-13 10:57:00,
2013-01-13 00:58:00,70.0,65.6,29.86,ENE,74,0.0,-999.0,86,0.00,,,0.00,PyWeather,2013-01-13 10:58:00,
2013-01-13 01:02:00,70.8,66.7,29.87,ENE,75,0.0,-999.0,87,0.00,,,0.00,PyWeather,2013-01-13 11:02:00,
2013-01-13 01:03:00,69.8,65.4,29.86,ENE,74,1.0,-999.0,86,0.00,,,0.00,PyWeather,2013-01-13 11:03:00,
2013-01-13 01:04:00,69.7,65.3,29.87,ENE,75,1.0,-999.0,86,0.00,,,0.00,PyWeather,2013-01-13 11:04:00,
2013-01-13 01:05:00,69.7,65.7,29.87,ENE,75,1.0,-999.0,87,0.00,,,0.00,PyWeather,2013-01-13 11:05:00,
2013-01-13 01:06:00,69.7,65.7,29.87,ENE,74,2.0,-999.0,87,0.00,,,0.00,PyWeather,2013-01-13 11:06:00,
2013-01-13 01:07:00,70.5,66.1,29.87,ENE,76,0.0,-999.0,86,0.00,,,0.00,PyWeather,2013-01-13 11:07:00,
2013-01-13 01:09:00,69.7,66.0,29.86,ENE,74,3.0,-999.0,88,0.00,,,0.00,PyWeather,2013-01-13 11:09:00,
2013-01-13 01:12:00,69.6,65.6,29.86,ENE,75,4.0,-999.0,87,0.00,,,0.00,PyWeather,2013-01-13 11:12:00,
2013-01-13 01:13:00,70.0,66.0,29.86,ENE,74,0.0,-999.0,87,0.00,,,0.00,PyWeather,2013-01-13 11:13:00,
2013-01-13 01:14:00,69.4,65.4,29.86,ENE,75,4.0,-999.0,87,0.00,,,0.00,PyWeather,2013-01-13 11:14:00,
2013-01-13 01:15:00,69.4,65.4,29.86,ENE,75,4.0,-999.0,87,0.00,,,0.00,PyWeather,2013-01-13 11:15:00,
2013-01-13 01:16:00,69.3,65.3,29.86,ENE,74,4.0,-999.0,87,0.00,,,0.00,PyWeather,2013-01-13 11:16:00,
2013-01-13 01:17:00,69.2,65.2,29.86,ENE,74,4.0,-999.0,87,0.00,,,0.00,PyWeather,2013-01-13 11:17:00,
2013-01-13 01:18:00,69.8,65.4,29.86,ENE,74,1.0,-999.0,86,0.00,,,0.00,PyWeather,2013-01-13 11:18:00,
2013-01-13 01:19:00,69.0,65.0,29.86,ENE,74,3.0,-999.0,87,0.00,,,0.00,PyWeather,2013-01-13 11:19:00,
2013-01-13 01:21:00,68.9,64.9,29.86,ENE,74,3.0,-999.0,87,0.00,,,0.00,PyWeather,2013-01-13 11:21:00,
2013-01-13 01:22:00,68.8,64.8,29.86,ENE,74,3.0,-999.0,87,0.00,,,0.00,PyWeather,2013-01-13 11:22:00,
2013-01-13 01:23:00,69.7,66.0,29.86,ENE,75,2.0,-999.0,88,0.00,,,0.00,PyWeather,2013-01-13 11:23:00,
2013-01-13 01:24:00,68.6,64.6,29.86,ENE,74,3.0,-999.0,87,0.00,,,0.00,PyWeather,2013-01-13 11:24:00,
2013-01-13 01:25:00,68.4,64.4,29.86,ENE,74,3.0,-999.0,87,0.00,,,0.00,PyWeather,2013-01-13 11:25:00,
2013-01-13 01:28:00,69.5,65.5,29.86,ENE,75,4.0,-999.0,87,0.00,,,0.00,PyWeather,2013-01-13 11:28:00,
2013-01-13 01:33:00,69.1,65.1,29.86,ENE,74,3.0,-999.0,87,0.00,,,0.00,PyWeather,2013-01-13 11:33:00,
2013-01-13 01:38:00,68.6,64.6,29.86,ENE,74,3.0,-999.0,87,0.00,,,0.00,PyWeather,2013-01-13 11:38:00,
2013-01-13 01:43:00,68.1,64.1,29.86,ENE,74,3.0,-999.0,87,0.00,,,0.00,PyWeather,2013-01-13 11:43:00,
2013-01-13 01:48:00,67.9,63.9,29.86,ENE,74,3.0,-999.0,87,0.00,,,0.00,PyWeather,2013-01-13 11:48:00,
2013-01-13 01:53:00,67.8,64.1,29.86,ENE,75,3.0,-999.0,88,0.00,,,0.00,PyWeather,2013-01-13 11:53:00,
2013-01-13 01:58:00,67.9,64.2,29.86,ENE,74,3.0,-999.0,88,0.00,,,0.00,PyWeather,2013-01-13 11:58:00,
2013-01-13 02:03:00,68.1,64.4,29.86,ENE,74,3.0,-999.0,88,0.00,,,0.00,PyWeather,2013-01-13 12:03:00,
2013-01-13 02:08:00,68.2,64.5,29.86,ENE,74,2.0,-999.0,88,0.00,,,0.00,PyWeather,2013-01-13 12:08:00,
2013-01-13 02:13:00,68.3,64.6,29.86,ENE,75,1.0,-999.0,88,0.00,,,0.00,PyWeather,2013-01-13 12:13:00,
2013-01-13 02:18:00,68.2,64.5,29.86,East,96,1.0,-999.0,88,0.00,,,0.00,PyWeather,2013-01-13 12:18:00,
2013-01-13 02:21:00,67.2,63.2,29.86,East,96,0.0,-999.0,87,0.00,,,0.00,PyWeather,2013-01-13 12:21:00,
2013-01-13 02:23:00,67.9,63.9,29.86,East,97,2.0,-999.0,87,0.00,,,0.00,PyWeather,2013-01-13 12:23:00,
2013-01-13 02:24:00,67.0,63.3,29.86,East,96,0.0,-999.0,88,0.00,,,0.00,PyWeather,2013-01-13 12:24:00,
2013-01-13 02:26:00,67.0,63.3,29.86,East,97,0.0,-999.0,88,0.00,,,0.00,PyWeather,2013-01-13 12:26:00,
2013-01-13 02:27:00,67.0,63.3,29.86,East,98,0.0,-999.0,88,0.00,,,0.00,PyWeather,2013-01-13 12:27:00,
2013-01-13 02:28:00,67.7,63.7,29.86,East,97,2.0,-999.0,87,0.00,,,0.00,PyWeather,2013-01-13 12:28:00,
2013-01-13 02:29:00,66.9,63.2,29.86,East,98,0.0,-999.0,88,0.00,,,0.00,PyWeather,2013-01-13 12:29:00,
2013-01-13 02:30:00,66.9,63.2,29.86,East,96,0.0,-999.0,88,0.00,,,0.00,PyWeather,2013-01-13 12:30:00,
2013-01-13 02:31:00,66.9,63.2,29.86,East,96,0.0,-999.0,88,0.00,,,0.00,PyWeather,2013-01-13 12:31:00,
2013-01-13 02:33:00,67.3,63.3,29.86,East,97,1.0,-999.0,87,0.00,,,0.00,PyWeather,2013-01-13 12:33:00,
2013-01-13 02:35:00,66.8,63.1,29.86,East,98,0.0,-999.0,88,0.00,,,0.00,PyWeather,2013-01-13 12:35:00,
2013-01-13 02:37:00,66.7,63.0,29.86,East,98,0.0,-999.0,88,0.00,,,0.00,PyWeather,2013-01-13 12:37:00,
2013-01-13 02:38:00,67.0,63.0,29.86,East,97,0.0,-999.0,87,0.00,,,0.00,PyWeather,2013-01-13 12:38:00,
2013-01-13 02:39:00,66.6,62.9,29.86,East,96,0.0,-999.0,88,0.00,,,0.00,PyWeather,2013-01-13 12:39:00,
2013-01-13 02:40:00,66.6,62.9,29.85,East,97,0.0,-999.0,88,0.00,,,0.00,PyWeather,2013-01-13 12:40:00,
2013-01-13 02:42:00,66.5,62.8,29.85,East,98,0.0,-999.0,88,0.00,,,0.00,PyWeather,2013-01-13 12:42:00,
2013-01-13 02:43:00,66.9,63.2,29.86,East,98,0.0,-999.0,88,0.00,,,0.00,PyWeather,2013-01-13 12:43:00,
2013-01-13 02:44:00,66.5,62.8,29.85,East,97,0.0,-999.0,88,0.00,,,0.00,PyWeather,2013-01-13 12:44:00,
2013-01-13 02:45:00,66.5,62.8,29.85,East,97,0.0,-999.0,88,0.00,,,0.00,PyWeather,2013-01-13 12:45:00,
2013-01-13 02:48:00,66.8,63.1,29.86,East,97,0.0,-999.0,88,0.00,,,0.00,PyWeather,2013-01-13 12:48:00,
2013-01-13 02:53:00,66.6,62.9,29.86,East,97,0.0,-999.0,88,0.00,,,0.00,PyWeather,2013-01-13 12:53:00,
2013-01-13 02:58:00,66.5,62.8,29.85,East,98,0.0,-999.0,88,0.00,,,0.00,PyWeather,2013-01-13 12:58:00,
2013-01-13 03:03:00,66.3,62.6,29.85,East,97,0.0,-999.0,88,0.00,,,0.00,PyWeather,2013-01-13 13:03:00,
2013-01-13 03:08:00,65.8,62.1,29.85,East,97,0.0,-999.0,88,0.00,,,0.00,PyWeather,2013-01-13 13:08:00,
2013-01-13 03:13:00,65.4,61.7,29.85,East,96,0.0,-999.0,88,0.00,,,0.00,PyWeather,2013-01-13 13:13:00,
2013-01-13 03:14:00,65.0,61.7,29.85,East,98,2.0,-999.0,89,0.00,,,0.00,PyWeather,2013-01-13 13:14:00,
2013-01-13 03:15:00,65.1,61.8,29.85,East,97,2.0,-999.0,89,0.00,,,0.00,PyWeather,2013-01-13 13:15:00,
2013-01-13 03:16:00,65.1,61.8,29.85,East,97,2.0,-999.0,89,0.00,,,0.00,PyWeather,2013-01-13 13:16:00,
2013-01-13 03:17:00,65.2,61.9,29.85,East,98,3.0,-999.0,89,0.00,,,0.00,PyWeather,2013-01-13 13:17:00,
2013-01-13 03:18:00,65.2,61.5,29.85,East,97,0.0,-999.0,88,0.00,,,0.00,PyWeather,2013-01-13 13:18:00,
2013-01-13 03:19:00,65.2,61.9,29.85,East,98,3.0,-999.0,89,0.00,,,0.00,PyWeather,2013-01-13 13:19:00,
2013-01-13 03:20:00,65.3,62.0,29.85,East,98,3.0,-999.0,89,0.00,,,0.00,PyWeather,2013-01-13 13:20:00,
2013-01-13 03:21:00,65.3,62.0,29.85,East,98,3.0,-999.0,89,0.00,,,0.00,PyWeather,2013-01-13 13:21:00,
2013-01-13 03:23:00,64.9,61.6,29.85,East,97,1.0,-999.0,89,0.00,,,0.00,PyWeather,2013-01-13 13:23:00,
2013-01-13 03:24:00,65.3,62.0,29.85,East,96,4.0,-999.0,89,0.00,,,0.00,PyWeather,2013-01-13 13:24:00,
2013-01-13 03:25:00,65.3,62.0,29.85,East,98,4.0,-999.0,89,0.00,,,0.00,PyWeather,2013-01-13 13:25:00,
2013-01-13 03:27:00,65.3,62.0,29.85,East,97,4.0,-999.0,89,0.00,,,0.00,PyWeather,2013-01-13 13:27:00,
2013-01-13 03:29:00,65.0,61.7,29.85,East,97,2.0,-999.0,89,0.00,,,0.00,PyWeather,2013-01-13 13:29:00,
2013-01-13 03:31:00,65.3,61.6,29.85,East,98,3.0,-999.0,88,0.00,,,0.00,PyWeather,2013-01-13 13:31:00,
2013-01-13 03:32:00,65.3,61.6,29.85,East,97,3.0,-999.0,88,0.00,,,0.00,PyWeather,2013-01-13 13:32:00,
2013-01-13 03:33:00,65.3,61.6,29.85,East,98,3.0,-999.0,88,0.00,,,0.00,PyWeather,2013-01-13 13:33:00,
2013-01-13 03:34:00,65.3,62.0,29.85,East,97,3.0,-999.0,89,0.00,,,0.00,PyWeather,2013-01-13 13:34:00,
2013-01-13 03:36:00,65.1,61.4,29.85,East,97,4.0,-999.0,88,0.00,,,0.00,PyWeather,2013-01-13 13:36:00,
2013-01-13 03:39:00,65.3,62.0,29.85,East,98,4.0,-999.0,89,0.00,,,0.00,PyWeather,2013-01-13 13:39:00,
2013-01-13 03:44:00,65.3,61.6,29.85,East,98,3.0,-999.0,88,0.00,,,0.00,PyWeather,2013-01-13 13:44:00,
2013-01-13 03:50:00,65.1,61.4,29.85,East,96,4.0,-999.0,88,0.00,,,0.00,PyWeather,2013-01-13 13:50:00,
2013-01-13 03:55:00,65.0,61.0,29.85,East,96,5.0,-999.0,87,0.00,,,0.00,PyWeather,2013-01-13 13:55:00,
2013-01-13 04:00:00,65.2,61.2,29.85,East,96,5.0,-999.0,87,0.00,,,0.00,PyWeather,2013-01-13 14:00:00,
2013-01-13 04:05:00,65.1,60.5,29.85,East,97,4.0,-999.0,85,0.00,,,0.00,PyWeather,2013-01-13 14:05:00,
2013-01-13 04:10:00,65.0,60.4,29.85,East,97,3.0,-999.0,85,0.00,,,0.00,PyWeather,2013-01-13 14:10:00,
2013-01-13 04:15:00,64.9,60.3,29.85,East,96,2.0,-999.0,85,0.00,,,0.00,PyWeather,2013-01-13 14:15:00,
2013-01-13 04:21:00,64.8,60.2,29.85,ENE,69,1.0,-999.0,85,0.00,,,0.00,PyWeather,2013-01-13 14:21:00,
2013-01-13 04:26:00,64.8,60.2,29.85,ENE,69,1.0,-999.0,85,0.00,,,0.00,PyWeather,2013-01-13 14:26:00,
2013-01-13 04:27:00,64.1,59.5,29.85,North,355,2.0,-999.0,85,0.00,,,0.00,PyWeather,2013-01-13 14:27:00,
2013-01-13 04:28:00,64.0,59.4,29.85,North,355,2.0,-999.0,85,0.00,,,0.00,PyWeather,2013-01-13 14:28:00,
2013-01-13 04:29:00,64.0,59.4,29.85,North,351,2.0,-999.0,85,0.00,,,0.00,PyWeather,2013-01-13 14:29:00,
2013-01-13 04:31:00,64.5,59.6,29.85,ENE,69,1.0,-999.0,84,0.00,,,0.00,PyWeather,2013-01-13 14:31:00,
2013-01-13 04:36:00,64.3,59.4,29.85,ENE,69,1.0,-999.0,84,0.00,,,0.00,PyWeather,2013-01-13 14:36:00,
2013-01-13 04:37:00,63.9,59.6,29.85,North,355,3.0,-999.0,86,0.00,,,0.00,PyWeather,2013-01-13 14:37:00,
2013-01-13 04:38:00,63.8,59.5,29.85,North,355,3.0,-999.0,86,0.00,,,0.00,PyWeather,2013-01-13 14:38:00,
2013-01-13 04:39:00,63.8,59.5,29.85,North,355,3.0,-999.0,86,0.00,,,0.00,PyWeather,2013-01-13 14:39:00,
2013-01-13 04:40:00,63.8,59.5,29.85,North,355,3.0,-999.0,86,0.00,,,0.00,PyWeather,2013-01-13 14:40:00,
2013-01-13 04:41:00,64.1,59.5,29.85,North,355,2.0,-999.0,85,0.00,,,0.00,PyWeather,2013-01-13 14:41:00,
2013-01-13 04:42:00,63.8,59.5,29.85,North,360,3.0,-999.0,86,0.00,,,0.00,PyWeather,2013-01-13 14:42:00,
2013-01-13 04:43:00,63.8,59.5,29.85,North,360,3.0,-999.0,86,0.00,,,0.00,PyWeather,2013-01-13 14:43:00,
2013-01-13 04:44:00,63.8,59.5,29.85,North,360,3.0,-999.0,86,0.00,,,0.00,PyWeather,2013-01-13 14:44:00,
2013-01-13 04:45:00,63.9,60.0,29.85,North,9,3.0,-999.0,87,0.00,,,0.00,PyWeather,2013-01-13 14:45:00,
2013-01-13 04:46:00,63.8,59.5,29.85,North,355,3.0,-999.0,86,0.00,,,0.00,PyWeather,2013-01-13 14:46:00,
2013-01-13 04:47:00,63.9,60.0,29.85,NNE,12,3.0,-999.0,87,0.00,,,0.00,PyWeather,2013-01-13 14:47:00,
2013-01-13 04:48:00,63.9,60.0,29.85,NNE,12,3.0,-999.0,87,0.00,,,0.00,PyWeather,2013-01-13 14:48:00,
2013-01-13 04:49:00,64.0,60.0,29.85,NNE,22,3.0,-999.0,87,0.00,,,0.00,PyWeather,2013-01-13 14:49:00,
2013-01-13 04:50:00,64.0,60.0,29.85,NNE,22,3.0,-999.0,87,0.00,,,0.00,PyWeather,2013-01-13 14:50:00,
2013-01-13 04:51:00,63.9,59.6,29.85,North,355,3.0,-999.0,86,0.00,,,0.00,PyWeather,2013-01-13 14:51:00,
2013-01-13 04:52:00,64.0,60.0,29.85,NE,53,3.0,-999.0,87,0.00,,,0.00,PyWeather,2013-01-13 14:52:00,
2013-01-13 04:53:00,64.0,60.0,29.85,NE,53,4.0,-999.0,87,0.00,,,0.00,PyWeather,2013-01-13 14:53:00,
2013-01-13 04:54:00,64.0,60.0,29.85,NE,53,4.0,-999.0,87,0.00,,,0.00,PyWeather,2013-01-13 14:54:00,
2013-01-13 04:55:00,64.0,59.7,29.85,NE,55,3.0,-999.0,86,0.00,,,0.00,PyWeather,2013-01-13 14:55:00,
2013-01-13 04:56:00,63.8,59.5,29.85,North,360,3.0,-999.0,86,0.00,,,0.00,PyWeather,2013-01-13 14:56:00,
2013-01-13 04:57:00,63.8,59.5,29.85,NE,56,3.0,-999.0,86,0.00,,,0.00,PyWeather,2013-01-13 14:57:00,
2013-01-13 04:58:00,63.7,59.4,29.85,NE,56,3.0,-999.0,86,0.00,,,0.00,PyWeather,2013-01-13 14:58:00,
2013-01-13 04:59:00,63.6,59.3,29.85,NE,56,3.0,-999.0,86,0.00,,,0.00,PyWeather,2013-01-13 14:59:00,
2013-01-13 05:01:00,63.9,60.0,29.85,NNE,13,3.0,-999.0,87,0.00,,,0.00,PyWeather,2013-01-13 15:01:00,
2013-01-13 05:02:00,63.4,59.1,29.85,NE,56,2.0,-999.0,86,0.00,,,0.00,PyWeather,2013-01-13 15:02:00,
2013-01-13 05:03:00,63.3,59.0,29.85,ENE,57,2.0,-999.0,86,0.00,,,0.00,PyWeather,2013-01-13 15:03:00,
2013-01-13 05:04:00,63.3,59.0,29.85,NE,56,1.0,-999.0,86,0.00,,,0.00,PyWeather,2013-01-13 15:04:00,
2013-01-13 05:05:00,63.2,58.9,29.85,ENE,57,1.0,-999.0,86,0.00,,,0.00,PyWeather,2013-01-13 15:05:00,
2013-01-13 05:06:00,63.2,58.9,29.85,ENE,57,1.0,-999.0,86,0.00,,,0.00,PyWeather,2013-01-13 15:06:00,
2013-01-13 05:07:00,64.0,60.0,29.85,NE,53,3.0,-999.0,87,0.00,,,0.00,PyWeather,2013-01-13 15:07:00,
2013-01-13 05:09:00,63.1,59.2,29.85,NE,56,0.0,-999.0,87,0.00,,,0.00,PyWeather,2013-01-13 15:09:00,
2013-01-13 05:10:00,63.1,59.2,29.85,ENE,57,0.0,-999.0,87,0.00,,,0.00,PyWeather,2013-01-13 15:10:00,
2013-01-13 05:11:00,63.1,59.2,29.85,ENE,57,0.0,-999.0,87,0.00,,,0.00,PyWeather,2013-01-13 15:11:00,
2013-01-13 05:12:00,63.7,59.4,29.85,ENE,57,3.0,-999.0,86,0.00,,,0.00,PyWeather,2013-01-13 15:12:00,
2013-01-13 05:13:00,63.1,58.8,29.85,NE,56,0.0,-999.0,86,0.00,,,0.00,PyWeather,2013-01-13 15:13:00,
2013-01-13 05:14:00,63.0,58.7,29.85,ENE,57,1.0,-999.0,86,0.00,,,0.00,PyWeather,2013-01-13 15:14:00,
2013-01-13 05:16:00,62.8,58.6,29.85,ENE,57,1.0,-999.0,86,0.00,,,0.00,PyWeather,2013-01-13 15:16:00,
2013-01-13 05:17:00,63.3,59.0,29.85,ENE,57,2.0,-999.0,86,0.00,,,0.00,PyWeather,2013-01-13 15:17:00,
2013-01-13 05:18:00,62.7,58.5,29.85,ENE,57,2.0,-999.0,86,0.00,,,0.00,PyWeather,2013-01-13 15:18:00,
2013-01-13 05:19:00,62.6,58.4,29.85,ENE,57,2.0,-999.0,86,0.00,,,0.00,PyWeather,2013-01-13 15:19:00,
2013-01-13 05:21:00,62.5,58.3,29.85,ENE,57,2.0,-999.0,86,0.00,,,0.00,PyWeather,2013-01-13 15:21:00,
2013-01-13 05:22:00,63.1,58.8,29.85,ENE,57,0.0,-999.0,86,0.00,,,0.00,PyWeather,2013-01-13 15:22:00,
2013-01-13 05:23:00,62.4,58.2,29.85,ENE,57,1.0,-999.0,86,0.00,,,0.00,PyWeather,2013-01-13 15:23:00,
2013-01-13 05:24:00,62.4,58.2,29.85,ENE,57,1.0,-999.0,86,0.00,,,0.00,PyWeather,2013-01-13 15:24:00,
2013-01-13 05:27:00,63.1,58.8,29.85,ENE,57,0.0,-999.0,86,0.00,,,0.00,PyWeather,2013-01-13 15:27:00,
2013-01-13 05:32:00,62.7,58.5,29.85,ENE,57,2.0,-999.0,86,0.00,,,0.00,PyWeather,2013-01-13 15:32:00,
2013-01-13 05:38:00,62.4,58.2,29.85,NE,56,1.0,-999.0,86,0.00,,,0.00,PyWeather,2013-01-13 15:38:00,
2013-01-13 05:43:00,62.4,58.5,29.85,ENE,57,0.0,-999.0,87,0.00,,,0.00,PyWeather,2013-01-13 15:43:00,
2013-01-13 05:48:00,62.5,58.6,29.85,ENE,57,0.0,-999.0,87,0.00,,,0.00,PyWeather,2013-01-13 15:48:00,
2013-01-13 05:53:00,62.4,58.5,29.85,ENE,57,1.0,-999.0,87,0.00,,,0.00,PyWeather,2013-01-13 15:53:00,
2013-01-13 05:58:00,62.5,58.6,29.85,ENE,57,2.0,-999.0,87,0.00,,,0.00,PyWeather,2013-01-13 15:58:00,
2013-01-13 06:03:00,62.6,58.7,29.85,ENE,57,2.0,-999.0,87,0.00,,,0.00,PyWeather,2013-01-13 16:03:00,
2013-01-13 06:08:00,62.7,59.1,29.85,ENE,57,2.0,-999.0,88,0.00,,,0.00,PyWeather,2013-01-13 16:08:00,
2013-01-13 06:13:00,63.1,59.5,29.85,ENE,72,3.0,-999.0,88,0.00,,,0.00,PyWeather,2013-01-13 16:13:00,
2013-01-13 06:18:00,63.4,59.5,29.85,ENE,71,4.0,-999.0,87,0.00,,,0.00,PyWeather,2013-01-13 16:18:00,
2013-01-13 06:22:00,64.5,60.9,29.86,East,80,3.0,-999.0,88,0.00,,,0.00,PyWeather,2013-01-13 16:22:00,
2013-01-13 06:23:00,63.5,60.2,29.85,ENE,76,3.0,-999.0,89,0.00,,,0.00,PyWeather,2013-01-13 16:23:00,
2013-01-13 06:24:00,64.6,61.0,29.86,East,79,3.0,-999.0,88,0.00,,,0.00,PyWeather,2013-01-13 16:24:00,
2013-01-13 06:26:00,64.7,61.1,29.86,East,80,3.0,-999.0,88,0.00,,,0.00,PyWeather,2013-01-13 16:26:00,
2013-01-13 06:27:00,64.8,61.2,29.86,East,80,3.0,-999.0,88,0.00,,,0.00,PyWeather,2013-01-13 16:27:00,
2013-01-13 06:28:00,64.1,60.5,29.85,East,80,4.0,-999.0,88,0.00,,,0.00,PyWeather,2013-01-13 16:28:00,
2013-01-13 06:29:00,64.8,60.8,29.86,East,79,3.0,-999.0,87,0.00,,,0.00,PyWeather,2013-01-13 16:29:00,
2013-01-13 06:31:00,64.7,60.7,29.86,East,80,2.0,-999.0,87,0.00,,,0.00,PyWeather,2013-01-13 16:31:00,
2013-01-13 06:32:00,64.7,60.7,29.86,East,80,2.0,-999.0,87,0.00,,,0.00,PyWeather,2013-01-13 16:32:00,
2013-01-13 06:33:00,64.4,60.8,29.86,East,80,3.0,-999.0,88,0.00,,,0.00,PyWeather,2013-01-13 16:33:00,
2013-01-13 06:34:00,64.6,60.3,29.86,East,80,2.0,-999.0,86,0.00,,,0.00,PyWeather,2013-01-13 16:34:00,
2013-01-13 06:35:00,64.5,60.2,29.86,East,80,1.0,-999.0,86,0.00,,,0.00,PyWeather,2013-01-13 16:35:00,
2013-01-13 06:36:00,64.3,60.3,29.86,East,80,1.0,-999.0,87,0.00,,,0.00,PyWeather,2013-01-13 16:36:00,
2013-01-13 06:37:00,64.3,60.3,29.86,East,80,2.0,-999.0,87,0.00,,,0.00,PyWeather,2013-01-13 16:37:00,
2013-01-13 06:38:00,64.6,61.0,29.86,East,80,3.0,-999.0,88,0.00,,,0.00,PyWeather,2013-01-13 16:38:00,
2013-01-13 06:39:00,64.3,60.3,29.86,East,81,2.0,-999.0,87,0.00,,,0.00,PyWeather,2013-01-13 16:39:00,
2013-01-13 06:41:00,64.2,60.2,29.86,East,80,2.0,-999.0,87,0.00,,,0.00,PyWeather,2013-01-13 16:41:00,
2013-01-13 06:43:00,64.8,61.2,29.86,East,79,3.0,-999.0,88,0.00,,,0.00,PyWeather,2013-01-13 16:43:00,
2013-01-13 06:47:00,64.0,60.0,29.86,East,79,3.0,-999.0,87,0.00,,,0.00,PyWeather,2013-01-13 16:47:00,
2013-01-13 06:48:00,64.6,60.6,29.86,East,80,2.0,-999.0,87,0.00,,,0.00,PyWeather,2013-01-13 16:48:00,
2013-01-13 06:50:00,63.8,59.9,29.86,East,79,3.0,-999.0,87,0.00,,,0.00,PyWeather,2013-01-13 16:50:00,
2013-01-13 06:52:00,63.8,59.9,29.86,East,79,3.0,-999.0,87,0.00,,,0.00,PyWeather,2013-01-13 16:52:00,
2013-01-13 06:53:00,64.3,60.3,29.86,East,80,2.0,-999.0,87,0.00,,,0.00,PyWeather,2013-01-13 16:53:00,
2013-01-13 06:54:00,63.6,59.7,29.86,East,80,3.0,-999.0,87,0.00,,,0.00,PyWeather,2013-01-13 16:54:00,
2013-01-13 06:57:00,63.5,59.6,29.87,East,79,3.0,-999.0,87,0.00,,,0.00,PyWeather,2013-01-13 16:57:00,
2013-01-13 06:58:00,64.1,60.1,29.86,East,80,3.0,-999.0,87,0.00,,,0.00,PyWeather,2013-01-13 16:58:00,
2013-01-13 06:59:00,63.6,60.0,29.87,East,80,4.0,-999.0,88,0.00,,,0.00,PyWeather,2013-01-13 16:59:00,
2013-01-13 07:00:00,63.6,59.7,29.87,East,80,3.0,-999.0,87,0.00,,,0.00,PyWeather,2013-01-13 17:00:00,
2013-01-13 07:01:00,63.6,59.7,29.87,East,80,3.0,-999.0,87,0.00,,,0.00,PyWeather,2013-01-13 17:01:00,
2013-01-13 07:03:00,63.8,59.9,29.86,East,80,3.0,-999.0,87,0.00,,,0.00,PyWeather,2013-01-13 17:03:00,
2013-01-13 07:05:00,63.4,59.5,29.87,ENE,78,3.0,-999.0,87,0.00,,,0.00,PyWeather,2013-01-13 17:05:00,
2013-01-13 07:06:00,63.4,59.5,29.87,ENE,78,2.0,-999.0,87,0.00,,,0.00,PyWeather,2013-01-13 17:06:00,
2013-01-13 07:07:00,63.3,59.4,29.87,ENE,78,2.0,-999.0,87,0.00,,,0.00,PyWeather,2013-01-13 17:07:00,
2013-01-13 07:08:00,63.6,59.7,29.86,East,79,3.0,-999.0,87,0.00,,,0.00,PyWeather,2013-01-13 17:08:00,
2013-01-13 07:09:00,63.3,59.4,29.87,East,79,2.0,-999.0,87,0.00,,,0.00,PyWeather,2013-01-13 17:09:00,
2013-01-13 07:13:00,63.6,60.0,29.87,East,80,4.0,-999.0,88,0.00,,,0.00,PyWeather,2013-01-13 17:13:00,
2013-01-13 07:18:00,63.4,59.5,29.87,ENE,78,3.0,-999.0,87,0.00,,,0.00,PyWeather,2013-01-13 17:18:00,
2013-01-13 07:23:00,63.3,59.4,29.87,ENE,78,2.0,-999.0,87,0.00,,,0.00,PyWeather,2013-01-13 17:23:00,
2013-01-13 07:28:00,63.1,59.2,29.87,ENE,74,2.0,-999.0,87,0.00,,,0.00,PyWeather,2013-01-13 17:28:00,
2013-01-13 07:33:00,62.9,58.7,29.87,ENE,74,3.0,-999.0,86,0.00,,,0.00,PyWeather,2013-01-13 17:33:00,
2013-01-13 07:38:00,62.7,58.5,29.88,ENE,74,3.0,-999.0,86,0.00,,,0.00,PyWeather,2013-01-13 17:38:00,
2013-01-13 07:43:00,62.7,58.5,29.88,ENE,76,3.0,-999.0,86,0.00,,,0.00,PyWeather,2013-01-13 17:43:00,
2013-01-13 07:48:00,63.1,58.8,29.88,ENE,76,3.0,-999.0,86,0.00,,,0.00,PyWeather,2013-01-13 17:48:00,
2013-01-13 07:53:00,63.8,59.5,29.88,ENE,76,3.0,-999.0,86,0.00,,,0.00,PyWeather,2013-01-13 17:53:00,
2013-01-13 07:55:00,66.3,61.0,29.89,ENE,77,0.0,-999.0,83,0.00,,,0.00,PyWeather,2013-01-13 17:55:00,
2013-01-13 07:56:00,66.7,61.1,29.89,ENE,76,0.0,-999.0,82,0.00,,,0.00,PyWeather,2013-01-13 17:56:00,
2013-01-13 07:57:00,66.7,61.1,29.89,ENE,76,0.0,-999.0,82,0.00,,,0.00,PyWeather,2013-01-13 17:57:00,
2013-01-13 07:58:00,64.6,60.0,29.88,ENE,76,2.0,-999.0,85,0.00,,,0.00,PyWeather,2013-01-13 17:58:00,
2013-01-13 08:00:00,67.2,61.2,29.89,ENE,76,0.0,-999.0,81,0.00,,,0.00,PyWeather,2013-01-13 18:00:00,
2013-01-13 08:01:00,67.5,61.5,29.89,ENE,76,0.0,-999.0,81,0.00,,,0.00,PyWeather,2013-01-13 18:01:00,
2013-01-13 08:02:00,67.5,61.2,29.89,ENE,76,0.0,-999.0,80,0.00,,,0.00,PyWeather,2013-01-13 18:02:00,
2013-01-13 08:03:00,65.4,60.5,29.88,ENE,76,0.0,-999.0,84,0.00,,,0.00,PyWeather,2013-01-13 18:03:00,
2013-01-13 08:05:00,68.0,61.3,29.89,ENE,76,0.0,-999.0,79,0.00,,,0.00,PyWeather,2013-01-13 18:05:00,
2013-01-13 08:06:00,68.1,61.4,29.89,ENE,76,0.0,-999.0,79,0.00,,,0.00,PyWeather,2013-01-13 18:06:00,
2013-01-13 08:07:00,68.2,61.2,29.89,ENE,76,0.0,-999.0,78,0.00,,,0.00,PyWeather,2013-01-13 18:07:00,
2013-01-13 08:08:00,66.2,60.9,29.89,ENE,75,0.0,-999.0,83,0.00,,,0.00,PyWeather,2013-01-13 18:08:00,
2013-01-13 08:10:00,68.5,61.5,29.89,ENE,76,0.0,-999.0,78,0.00,,,0.00,PyWeather,2013-01-13 18:10:00,
2013-01-13 08:11:00,68.6,61.6,29.89,ENE,76,0.0,-999.0,78,0.00,,,0.00,PyWeather,2013-01-13 18:11:00,
2013-01-13 08:12:00,68.7,61.7,29.89,ENE,76,0.0,-999.0,78,0.00,,,0.00,PyWeather,2013-01-13 18:12:00,
2013-01-13 08:13:00,67.1,61.1,29.89,ENE,76,0.0,-999.0,81,0.00,,,0.00,PyWeather,2013-01-13 18:13:00,
2013-01-13 08:18:00,67.9,61.6,29.89,ENE,76,0.0,-999.0,80,0.00,,,0.00,PyWeather,2013-01-13 18:18:00,
2013-01-13 08:23:00,68.4,61.4,29.89,ENE,76,0.0,-999.0,78,0.00,,,0.00,PyWeather,2013-01-13 18:23:00,
2013-01-13 08:28:00,69.0,62.0,29.89,ENE,76,0.0,-999.0,78,0.00,,,0.00,PyWeather,2013-01-13 18:28:00,
2013-01-13 08:33:00,69.4,62.0,29.89,ENE,77,0.0,-999.0,77,0.00,,,0.00,PyWeather,2013-01-13 18:33:00,
2013-01-13 08:37:00,71.7,64.6,29.89,ENE,76,0.0,-999.0,78,0.00,,,0.00,PyWeather,2013-01-13 18:37:00,
2013-01-13 08:38:00,70.1,62.7,29.89,ENE,76,0.0,-999.0,77,0.00,,,0.00,PyWeather,2013-01-13 18:38:00,
2013-01-13 08:39:00,71.9,64.8,29.89,ENE,77,0.0,-999.0,78,0.00,,,0.00,PyWeather,2013-01-13 18:39:00,
2013-01-13 08:40:00,72.0,64.9,29.89,ENE,76,1.0,-999.0,78,0.00,,,0.00,PyWeather,2013-01-13 18:40:00,
2013-01-13 08:42:00,72.1,65.0,29.89,ENE,77,1.0,-999.0,78,0.00,,,0.00,PyWeather,2013-01-13 18:42:00,
2013-01-13 08:43:00,70.8,63.7,29.89,ENE,76,0.0,-999.0,78,0.00,,,0.00,PyWeather,2013-01-13 18:43:00,
2013-01-13 08:44:00,72.2,64.7,29.89,ENE,76,1.0,-999.0,77,0.00,,,0.00,PyWeather,2013-01-13 18:44:00,
2013-01-13 08:45:00,72.2,64.7,29.89,ENE,76,1.0,-999.0,77,0.00,,,0.00,PyWeather,2013-01-13 18:45:00,
2013-01-13 08:46:00,72.2,64.7,29.89,ENE,76,1.0,-999.0,77,0.00,,,0.00,PyWeather,2013-01-13 18:46:00,
2013-01-13 08:47:00,72.3,64.8,29.89,ENE,76,1.0,-999.0,77,0.00,,,0.00,PyWeather,2013-01-13 18:47:00,
2013-01-13 08:48:00,71.5,64.4,29.89,ENE,76,0.0,-999.0,78,0.00,,,0.00,PyWeather,2013-01-13 18:48:00,
2013-01-13 08:49:00,72.4,64.9,29.89,ENE,76,0.0,-999.0,77,0.00,,,0.00,PyWeather,2013-01-13 18:49:00,
2013-01-13 08:51:00,72.6,65.1,29.89,ENE,76,0.0,-999.0,77,0.00,,,0.00,PyWeather,2013-01-13 18:51:00,
2013-01-13 08:52:00,72.6,65.1,29.89,ENE,76,0.0,-999.0,77,0.00,,,0.00,PyWeather,2013-01-13 18:52:00,
2013-01-13 08:53:00,71.9,64.8,29.89,ENE,76,0.0,-999.0,78,0.00,,,0.00,PyWeather,2013-01-13 18:53:00,
2013-01-13 08:54:00,72.8,65.3,29.89,ENE,76,0.0,-999.0,77,0.00,,,0.00,PyWeather,2013-01-13 18:54:00,
2013-01-13 08:55:00,73.0,65.1,29.89,ENE,76,0.0,-999.0,76,0.00,,,0.00,PyWeather,2013-01-13 18:55:00,
2013-01-13 08:57:00,73.1,65.2,29.89,ENE,76,0.0,-999.0,76,0.00,,,0.00,PyWeather,2013-01-13 18:57:00,
2013-01-13 08:58:00,72.2,65.1,29.89,ENE,76,1.0,-999.0,78,0.00,,,0.00,PyWeather,2013-01-13 18:58:00,
2013-01-13 09:03:00,72.4,64.9,29.89,ENE,76,0.0,-999.0,77,0.00,,,0.00,PyWeather,2013-01-13 19:03:00,
2013-01-13 09:09:00,72.9,65.4,29.89,ENE,76,0.0,-999.0,77,0.00,,,0.00,PyWeather,2013-01-13 19:09:00,
2013-01-13 09:14:00,73.4,65.5,29.89,ENE,76,0.0,-999.0,76,0.00,,,0.00,PyWeather,2013-01-13 19:14:00,
2013-01-13 09:19:00,73.9,66.0,29.89,ENE,76,1.0,-999.0,76,0.00,,,0.00,PyWeather,2013-01-13 19:19:00,
2013-01-13 09:24:00,74.2,65.9,29.89,NE,46,2.0,-999.0,75,0.00,,,0.00,PyWeather,2013-01-13 19:24:00,
2013-01-13 09:29:00,74.3,65.6,29.89,North,5,2.0,-999.0,74,0.00,,,0.00,PyWeather,2013-01-13 19:29:00,
2013-01-13 09:31:00,75.4,65.9,29.89,NNW,343,3.0,-999.0,72,0.00,,,0.00,PyWeather,2013-01-13 19:31:00,
2013-01-13 09:32:00,75.5,66.0,29.89,NNW,344,3.0,-999.0,72,0.00,,,0.00,PyWeather,2013-01-13 19:32:00,
2013-01-13 09:33:00,75.6,66.1,29.89,North,355,3.0,-999.0,72,0.00,,,0.00,PyWeather,2013-01-13 19:33:00,
2013-01-13 09:34:00,74.8,66.1,29.89,NNE,12,3.0,-999.0,74,0.00,,,0.00,PyWeather,2013-01-13 19:34:00,
2013-01-13 09:38:00,76.0,66.1,29.89,North,9,2.0,-999.0,71,0.00,,,0.00,PyWeather,2013-01-13 19:38:00,
2013-01-13 09:39:00,75.1,65.6,29.89,NNW,342,3.0,-999.0,72,0.00,,,0.00,PyWeather,2013-01-13 19:39:00,
2013-01-13 09:40:00,76.1,66.2,29.89,North,5,2.0,-999.0,71,0.00,,,0.00,PyWeather,2013-01-13 19:40:00,
2013-01-13 09:44:00,75.3,65.8,29.89,NNW,344,3.0,-999.0,72,0.00,,,0.00,PyWeather,2013-01-13 19:44:00,
2013-01-13 09:49:00,75.8,66.3,29.89,North,355,2.0,-999.0,72,0.00,,,0.00,PyWeather,2013-01-13 19:49:00,
2013-01-13 09:54:00,76.1,66.2,29.89,North,5,2.0,-999.0,71,0.00,,,0.00,PyWeather,2013-01-13 19:54:00,
2013-01-13 10:54:00,80.1,66.1,29.86,North,355,2.0,-999.0,62,0.00,,,0.00,PyWeather,2013-01-13 20:54:00,
2013-01-13 10:55:00,80.0,66.1,29.86,North,351,2.0,-999.0,62,0.00,,,0.00,PyWeather,2013-01-13 20:55:00,
2013-01-13 10:56:00,80.1,65.7,29.86,North,350,2.0,-999.0,61,0.00,,,0.00,PyWeather,2013-01-13 20:56:00,
2013-01-13 10:57:00,80.0,65.6,29.86,North,350,2.0,-999.0,61,0.00,,,0.00,PyWeather,2013-01-13 20:57:00,
2013-01-13 10:58:00,80.0,65.6,29.86,North,350,2.0,-999.0,61,0.00,,,0.00,PyWeather,2013-01-13 20:58:00,
2013-01-13 10:59:00,79.9,65.5,29.86,NNW,333,2.0,-999.0,61,0.00,,,0.00,PyWeather,2013-01-13 20:59:00,
2013-01-13 11:00:00,79.9,65.0,29.86,NNW,333,3.0,-999.0,60,0.00,,,0.00,PyWeather,2013-01-13 21:00:00,
2013-01-13 11:01:00,79.8,65.4,29.86,NNW,333,3.0,-999.0,61,0.00,,,0.00,PyWeather,2013-01-13 21:01:00,
2013-01-13 11:02:00,79.8,65.4,29.86,NW,320,3.0,-999.0,61,0.00,,,0.00,PyWeather,2013-01-13 21:02:00,
2013-01-13 11:03:00,79.8,65.4,29.86,NW,308,4.0,-999.0,61,0.00,,,0.00,PyWeather,2013-01-13 21:03:00,
2013-01-13 11:04:00,79.8,65.4,29.86,West,267,5.0,-999.0,61,0.00,,,0.00,PyWeather,2013-01-13 21:04:00,
2013-01-13 11:05:00,79.8,65.4,29.86,WNW,295,5.0,-999.0,61,0.00,,,0.00,PyWeather,2013-01-13 21:05:00,
2013-01-13 11:06:00,79.8,64.9,29.86,North,351,5.0,-999.0,60,0.00,,,0.00,PyWeather,2013-01-13 21:06:00,
2013-01-13 11:07:00,79.7,64.8,29.86,NNW,330,5.0,-999.0,60,0.00,,,0.00,PyWeather,2013-01-13 21:07:00,
2013-01-13 11:08:00,79.7,64.8,29.86,NW,313,6.0,-999.0,60,0.00,,,0.00,PyWeather,2013-01-13 21:08:00,
2013-01-13 11:09:00,79.6,64.2,29.86,NW,305,6.0,-999.0,59,0.00,,,0.00,PyWeather,2013-01-13 21:09:00,
2013-01-13 11:10:00,79.6,64.7,29.86,North,9,6.0,-999.0,60,0.00,,,0.00,PyWeather,2013-01-13 21:10:00,
2013-01-13 11:11:00,79.7,64.8,29.86,NNE,14,6.0,-999.0,60,0.00,,,0.00,PyWeather,2013-01-13 21:11:00,
2013-01-13 11:12:00,79.7,64.8,29.86,NNE,15,6.0,-999.0,60,0.00,,,0.00,PyWeather,2013-01-13 21:12:00,
2013-01-13 11:13:00,79.7,64.8,29.85,NNE,14,5.0,-999.0,60,0.00,,,0.00,PyWeather,2013-01-13 21:13:00,
2013-01-13 11:14:00,79.8,64.9,29.85,NNE,16,4.0,-999.0,60,0.00,,,0.00,PyWeather,2013-01-13 21:14:00,
2013-01-13 11:17:00,80.2,64.8,29.85,NW,322,3.0,-999.0,59,0.00,,,0.00,PyWeather,2013-01-13 21:17:00,
2013-01-13 11:18:00,80.2,64.8,29.85,NW,321,3.0,-999.0,59,0.00,,,0.00,PyWeather,2013-01-13 21:18:00,
2013-01-13 11:19:00,80.3,64.9,29.85,NW,322,3.0,-999.0,59,0.00,,,0.00,PyWeather,2013-01-13 21:19:00,
2013-01-13 11:20:00,80.3,64.9,29.85,NW,322,2.0,-999.0,59,0.00,,,0.00,PyWeather,2013-01-13 21:20:00,
2013-01-13 11:21:00,80.3,64.9,29.85,NW,321,2.0,-999.0,59,0.00,,,0.00,PyWeather,2013-01-13 21:21:00,
2013-01-13 11:23:00,80.4,64.5,29.85,NNW,336,2.0,-999.0,58,0.00,,,0.00,PyWeather,2013-01-13 21:23:00,
2013-01-13 11:26:00,79.7,64.8,29.86,NNE,15,6.0,-999.0,60,0.00,,,0.00,PyWeather,2013-01-13 21:26:00,
2013-01-13 11:28:00,80.4,67.8,29.84,SW,217,3.0,-999.0,65,0.00,,,0.00,PyWeather,2013-01-13 21:28:00,
2013-01-13 11:29:00,80.3,68.1,29.84,SSW,192,3.0,-999.0,66,0.00,,,0.00,PyWeather,2013-01-13 21:29:00,
2013-01-13 11:30:00,80.2,68.1,29.84,SW,234,4.0,-999.0,66,0.00,,,0.00,PyWeather,2013-01-13 21:30:00,
2013-01-13 11:31:00,80.2,65.3,29.85,NW,321,3.0,-999.0,60,0.00,,,0.00,PyWeather,2013-01-13 21:31:00,
2013-01-13 11:32:00,80.2,68.1,29.84,SSW,198,6.0,-999.0,66,0.00,,,0.00,PyWeather,2013-01-13 21:32:00,
2013-01-13 11:33:00,80.1,68.0,29.84,SW,223,6.0,-999.0,66,0.00,,,0.00,PyWeather,2013-01-13 21:33:00,
2013-01-13 11:34:00,80.0,67.9,29.84,SSW,213,7.0,-999.0,66,0.00,,,0.00,PyWeather,2013-01-13 21:34:00,
2013-01-13 11:35:00,79.9,68.2,29.83,WSW,250,8.0,-999.0,67,0.00,,,0.00,PyWeather,2013-01-13 21:35:00,
2013-01-13 11:36:00,80.4,64.5,29.85,NW,323,2.0,-999.0,58,0.00,,,0.00,PyWeather,2013-01-13 21:36:00,
2013-01-13 11:37:00,79.6,67.5,29.84,SW,221,9.0,-999.0,66,0.00,,,0.00,PyWeather,2013-01-13 21:37:00,
2013-01-13 11:38:00,79.4,67.3,29.84,SW,236,9.0,-999.0,66,0.00,,,0.00,PyWeather,2013-01-13 21:38:00,
2013-01-13 11:39:00,79.3,67.2,29.84,SW,232,9.0,-999.0,66,0.00,,,0.00,PyWeather,2013-01-13 21:39:00,
2013-01-13 11:40:00,79.2,67.5,29.84,SW,225,9.0,-999.0,67,0.00,,,0.00,PyWeather,2013-01-13 21:40:00,
2013-01-13 11:41:00,80.5,67.4,29.84,SSW,202,3.0,-999.0,64,0.00,,,0.00,PyWeather,2013-01-13 21:41:00,
2013-01-13 11:42:00,78.9,66.8,29.84,SW,221,10.0,-999.0,66,0.00,,,0.00,PyWeather,2013-01-13 21:42:00,
2013-01-13 11:43:00,78.9,67.2,29.83,WSW,247,10.0,-999.0,67,0.00,,,0.00,PyWeather,2013-01-13 21:43:00,
2013-01-13 11:44:00,78.9,67.2,29.83,SW,235,9.0,-999.0,67,0.00,,,0.00,PyWeather,2013-01-13 21:44:00,
2013-01-13 11:45:00,79.0,66.9,29.83,SW,236,9.0,-999.0,66,0.00,,,0.00,PyWeather,2013-01-13 21:45:00,
2013-01-13 11:46:00,80.2,68.1,29.84,SW,221,6.0,-999.0,66,0.00,,,0.00,PyWeather,2013-01-13 21:46:00,
2013-01-13 11:47:00,79.0,67.3,29.83,SW,234,9.0,-999.0,67,0.00,,,0.00,PyWeather,2013-01-13 21:47:00,
2013-01-13 11:48:00,79.1,67.0,29.83,SW,234,9.0,-999.0,66,0.00,,,0.00,PyWeather,2013-01-13 21:48:00,
2013-01-13 11:50:00,79.2,66.7,29.83,WSW,246,9.0,-999.0,65,0.00,,,0.00,PyWeather,2013-01-13 21:50:00,
2013-01-13 11:51:00,79.1,66.6,29.83,SW,225,9.0,-999.0,65,0.00,,,0.00,PyWeather,2013-01-13 21:51:00,
2013-01-13 11:52:00,79.6,67.5,29.84,SW,227,9.0,-999.0,66,0.00,,,0.00,PyWeather,2013-01-13 21:52:00,
2013-01-13 11:54:00,79.1,66.1,29.83,SW,231,9.0,-999.0,64,0.00,,,0.00,PyWeather,2013-01-13 21:54:00,
2013-01-13 11:55:00,79.1,66.1,29.83,SW,230,9.0,-999.0,64,0.00,,,0.00,PyWeather,2013-01-13 21:55:00,
2013-01-13 11:57:00,78.9,67.2,29.83,SW,223,10.0,-999.0,67,0.00,,,0.00,PyWeather,2013-01-13 21:57:00,
2013-01-13 11:59:00,79.2,66.2,29.83,SSW,204,8.0,-999.0,64,0.00,,,0.00,PyWeather,2013-01-13 21:59:00,
2013-01-13 12:01:00,79.5,66.0,29.83,WSW,240,8.0,-999.0,63,0.00,,,0.00,PyWeather,2013-01-13 22:01:00,
2013-01-13 12:02:00,79.1,67.4,29.83,WSW,244,9.0,-999.0,67,0.00,,,0.00,PyWeather,2013-01-13 22:02:00,
2013-01-13 12:05:00,79.7,65.8,29.83,SW,226,8.0,-999.0,62,0.00,,,0.00,PyWeather,2013-01-13 22:05:00,
2013-01-13 12:06:00,79.7,65.8,29.83,SW,223,8.0,-999.0,62,0.00,,,0.00,PyWeather,2013-01-13 22:06:00,
2013-01-13 12:07:00,79.1,66.6,29.83,SW,225,9.0,-999.0,65,0.00,,,0.00,PyWeather,2013-01-13 22:07:00,
2013-01-13 12:08:00,79.7,65.8,29.82,WSW,238,8.0,-999.0,62,0.00,,,0.00,PyWeather,2013-01-13 22:08:00,
2013-01-13 12:09:00,79.7,65.8,29.82,WSW,240,8.0,-999.0,62,0.00,,,0.00,PyWeather,2013-01-13 22:09:00,
2013-01-13 12:11:00,79.9,65.5,29.82,WSW,247,8.0,-999.0,61,0.00,,,0.00,PyWeather,2013-01-13 22:11:00,
2013-01-13 12:12:00,79.2,66.2,29.83,WSW,248,8.0,-999.0,64,0.00,,,0.00,PyWeather,2013-01-13 22:12:00,
2013-01-13 12:14:00,80.2,65.8,29.82,SW,218,8.0,-999.0,61,0.00,,,0.00,PyWeather,2013-01-13 22:14:00,
2013-01-13 12:15:00,80.3,65.9,29.82,SW,214,8.0,-999.0,61,0.00,,,0.00,PyWeather,2013-01-13 22:15:00,
2013-01-13 12:17:00,79.5,66.0,29.83,SW,234,8.0,-999.0,63,0.00,,,0.00,PyWeather,2013-01-13 22:17:00,
2013-01-13 12:19:00,80.5,65.6,29.82,WSW,246,8.0,-999.0,60,0.00,,,0.00,PyWeather,2013-01-13 22:19:00,
2013-01-13 12:20:00,80.5,65.6,29.82,South,186,7.0,-999.0,60,0.00,,,0.00,PyWeather,2013-01-13 22:20:00,
2013-01-13 12:22:00,79.7,65.8,29.82,SW,229,8.0,-999.0,62,0.00,,,0.00,PyWeather,2013-01-13 22:22:00,
2013-01-13 12:23:00,80.4,65.5,29.82,SW,220,6.0,-999.0,60,0.00,,,0.00,PyWeather,2013-01-13 22:23:00,
2013-01-13 12:25:00,80.4,65.5,29.81,South,184,6.0,-999.0,60,0.00,,,0.00,PyWeather,2013-01-13 22:25:00,
2013-01-13 12:27:00,80.1,65.7,29.82,SW,218,8.0,-999.0,61,0.00,,,0.00,PyWeather,2013-01-13 22:27:00,
2013-01-13 12:32:00,80.5,65.6,29.82,West,261,8.0,-999.0,60,0.00,,,0.00,PyWeather,2013-01-13 22:32:00,
2013-01-13 12:37:00,80.4,65.5,29.82,SW,217,6.0,-999.0,60,0.00,,,0.00,PyWeather,2013-01-13 22:37:00,
2013-01-13 12:43:00,80.6,66.1,29.81,SSW,207,6.0,-999.0,61,0.00,,,0.00,PyWeather,2013-01-13 22:43:00,
2013-01-13 12:48:00,80.8,65.9,29.81,SSW,200,8.0,-999.0,60,0.00,,,0.00,PyWeather,2013-01-13 22:48:00,
2013-01-13 12:53:00,81.1,65.6,29.81,SW,236,9.0,-999.0,59,0.00,,,0.00,PyWeather,2013-01-13 22:53:00,
2013-01-13 12:58:00,80.6,65.2,29.81,SSW,213,9.0,-999.0,59,0.00,,,0.00,PyWeather,2013-01-13 22:58:00,
2013-01-13 12:59:00,81.2,65.2,29.81,SW,229,9.0,-999.0,58,0.00,,,0.00,PyWeather,2013-01-13 22:59:00,
2013-01-13 13:00:00,81.1,65.2,29.81,WSW,247,8.0,-999.0,58,0.00,,,0.00,PyWeather,2013-01-13 23:00:00,
2013-01-13 13:01:00,81.0,65.1,29.81,WSW,246,8.0,-999.0,58,0.00,,,0.00,PyWeather,2013-01-13 23:01:00,
2013-01-13 13:02:00,80.9,65.0,29.81,SW,227,8.0,-999.0,58,0.00,,,0.00,PyWeather,2013-01-13 23:02:00,
2013-01-13 13:03:00,80.9,65.5,29.81,SW,222,9.0,-999.0,59,0.00,,,0.00,PyWeather,2013-01-13 23:03:00,
2013-01-13 13:04:00,80.8,65.9,29.81,SSW,202,7.0,-999.0,60,0.00,,,0.00,PyWeather,2013-01-13 23:04:00,
2013-01-13 13:05:00,80.8,65.9,29.81,SSW,212,6.0,-999.0,60,0.00,,,0.00,PyWeather,2013-01-13 23:05:00,
2013-01-13 13:08:00,81.3,65.8,29.81,SSW,201,9.0,-999.0,59,0.00,,,0.00,PyWeather,2013-01-13 23:08:00,
2013-01-13 13:09:00,81.3,66.3,29.81,SW,228,6.0,-999.0,60,0.00,,,0.00,PyWeather,2013-01-13 23:09:00,
2013-01-13 13:10:00,81.4,66.4,29.81,SW,215,6.0,-999.0,60,0.00,,,0.00,PyWeather,2013-01-13 23:10:00,
2013-01-13 13:11:00,81.4,66.4,29.81,SW,221,6.0,-999.0,60,0.00,,,0.00,PyWeather,2013-01-13 23:11:00,
2013-01-13 13:12:00,81.4,66.4,29.81,SSW,208,6.0,-999.0,60,0.00,,,0.00,PyWeather,2013-01-13 23:12:00,
2013-01-13 13:13:00,81.4,66.4,29.81,SW,222,7.0,-999.0,60,0.00,,,0.00,PyWeather,2013-01-13 23:13:00,
2013-01-13 13:14:00,81.1,65.2,29.81,WSW,250,8.0,-999.0,58,0.00,,,0.00,PyWeather,2013-01-13 23:14:00,
2013-01-13 13:15:00,81.3,66.3,29.81,SSW,209,8.0,-999.0,60,0.00,,,0.00,PyWeather,2013-01-13 23:15:00,
2013-01-13 13:16:00,81.2,66.7,29.81,SSW,195,9.0,-999.0,61,0.00,,,0.00,PyWeather,2013-01-13 23:16:00,
2013-01-13 13:17:00,81.1,67.1,29.81,WSW,237,9.0,-999.0,62,0.00,,,0.00,PyWeather,2013-01-13 23:17:00,
2013-01-13 13:18:00,81.1,66.6,29.81,SSW,211,9.0,-999.0,61,0.00,,,0.00,PyWeather,2013-01-13 23:18:00,
2013-01-13 13:19:00,81.1,66.6,29.81,SSW,211,9.0,-999.0,61,0.00,,,0.00,PyWeather,2013-01-13 23:19:00,
2013-01-13 13:20:00,80.9,66.0,29.81,SW,219,6.0,-999.0,60,0.00,,,0.00,PyWeather,2013-01-13 23:20:00,
2013-01-13 13:21:00,81.2,66.7,29.81,SW,223,10.0,-999.0,61,0.00,,,0.00,PyWeather,2013-01-13 23:21:00,
2013-01-13 13:22:00,81.3,66.3,29.81,SW,215,10.0,-999.0,60,0.00,,,0.00,PyWeather,2013-01-13 23:22:00,
2013-01-13 13:24:00,81.4,67.4,29.81,SW,227,9.0,-999.0,62,0.00,,,0.00,PyWeather,2013-01-13 23:24:00,
2013-01-13 13:25:00,81.4,66.4,29.81,SW,229,6.0,-999.0,60,0.00,,,0.00,PyWeather,2013-01-13 23:25:00,
2013-01-13 13:27:00,81.5,66.0,29.81,SW,224,9.0,-999.0,59,0.00,,,0.00,PyWeather,2013-01-13 23:27:00,
2013-01-13 13:30:00,81.2,66.7,29.81,SSW,196,8.0,-999.0,61,0.00,,,0.00,PyWeather,2013-01-13 23:30:00,
2013-01-13 13:35:00,81.1,66.6,29.81,SSW,211,9.0,-999.0,61,0.00,,,0.00,PyWeather,2013-01-13 23:35:00,
2013-01-13 13:40:00,81.6,67.1,29.81,SW,219,9.0,-999.0,61,0.00,,,0.00,PyWeather,2013-01-13 23:40:00,
2013-01-13 13:45:00,81.7,66.2,29.81,SSW,197,8.0,-999.0,59,0.00,,,0.00,PyWeather,2013-01-13 23:45:00,
2013-01-13 13:50:00,82.0,67.5,29.81,NW,321,8.0,-999.0,61,0.00,,,0.00,PyWeather,2013-01-13 23:50:00,
2013-01-13 13:55:00,81.9,67.4,29.81,WSW,247,8.0,-999.0,61,0.00,,,0.00,PyWeather,2013-01-13 23:55:00,
2013-01-13 14:00:00,81.6,67.1,29.81,West,267,8.0,23.0,61,0.00,,,0.00,PyWeather,2013-01-14 00:00:00,
2013-01-13 14:05:00,81.4,67.4,29.81,WNW,296,7.0,23.0,62,0.00,,,0.00,PyWeather,2013-01-14 00:05:00,
2013-01-13 14:10:00,81.2,67.2,29.82,NNW,342,6.0,-999.0,62,0.00,,,0.00,PyWeather,2013-01-14 00:10:00,
2013-01-13 14:15:00,81.8,68.2,29.82,NNW,344,5.0,-999.0,63,0.00,,,0.00,PyWeather,2013-01-14 00:15:00,
2013-01-13 14:20:00,81.4,67.4,29.82,North,355,8.0,-999.0,62,0.00,,,0.00,PyWeather,2013-01-14 00:20:00,
2013-01-13 14:22:00,81.6,68.0,29.83,NE,37,11.0,-999.0,63,0.00,,,0.00,PyWeather,2013-01-14 00:22:00,
2013-01-13 14:23:00,81.6,68.0,29.83,North,360,11.0,-999.0,63,0.00,,,0.00,PyWeather,2013-01-14 00:23:00,
2013-01-13 14:25:00,81.3,67.8,29.82,NNW,347,10.0,-999.0,63,0.00,,,0.00,PyWeather,2013-01-14 00:25:00,
2013-01-13 14:26:00,81.4,68.3,29.82,North,9,10.0,-999.0,64,0.00,,,0.00,PyWeather,2013-01-14 00:26:00,
2013-01-13 14:27:00,81.4,67.8,29.82,NNE,27,10.0,-999.0,63,0.00,,,0.00,PyWeather,2013-01-14 00:27:00,
2013-01-13 14:28:00,81.5,67.5,29.82,NNE,31,10.0,-999.0,62,0.00,,,0.00,PyWeather,2013-01-14 00:28:00,
2013-01-13 14:29:00,81.6,68.0,29.82,NNE,28,10.0,-999.0,63,0.00,,,0.00,PyWeather,2013-01-14 00:29:00,
2013-01-13 14:30:00,81.1,67.6,29.82,North,10,11.0,-999.0,63,0.00,,,0.00,PyWeather,2013-01-14 00:30:00,
2013-01-13 14:31:00,81.6,67.6,29.82,North,5,10.0,-999.0,62,0.00,,,0.00,PyWeather,2013-01-14 00:31:00,
2013-01-13 14:32:00,81.6,68.0,29.82,NNE,24,10.0,-999.0,63,0.00,,,0.00,PyWeather,2013-01-14 00:32:00,
2013-01-13 14:34:00,81.7,67.7,29.82,North,360,9.0,-999.0,62,0.00,,,0.00,PyWeather,2013-01-14 00:34:00,
2013-01-13 14:35:00,81.4,68.3,29.82,NNE,24,11.0,-999.0,64,0.00,,,0.00,PyWeather,2013-01-14 00:35:00,
2013-01-13 14:36:00,81.4,66.9,29.83,NNE,26,9.0,-999.0,61,0.00,,,0.00,PyWeather,2013-01-14 00:36:00,
2013-01-13 14:37:00,81.4,66.9,29.83,NNE,22,9.0,-999.0,61,0.00,,,0.00,PyWeather,2013-01-14 00:37:00,
2013-01-13 14:39:00,81.4,67.4,29.83,North,11,9.0,-999.0,62,0.00,,,0.00,PyWeather,2013-01-14 00:39:00,
2013-01-13 14:40:00,81.3,67.8,29.83,North,351,9.0,-999.0,63,0.00,,,0.00,PyWeather,2013-01-14 00:40:00,
2013-01-13 14:41:00,81.4,67.8,29.82,North,355,10.0,-999.0,63,0.00,,,0.00,PyWeather,2013-01-14 00:41:00,
2013-01-13 14:43:00,81.3,67.8,29.83,North,349,10.0,-999.0,63,0.00,,,0.00,PyWeather,2013-01-14 00:43:00,
2013-01-13 14:46:00,81.5,67.9,29.82,NNE,19,10.0,-999.0,63,0.00,,,0.00,PyWeather,2013-01-14 00:46:00,
2013-01-13 14:51:00,81.4,67.4,29.83,NNE,29,9.0,-999.0,62,0.00,,,0.00,PyWeather,2013-01-14 00:51:00,
2013-01-13 14:56:00,81.4,67.8,29.83,North,350,10.0,-999.0,63,0.00,,,0.00,PyWeather,2013-01-14 00:56:00,
2013-01-13 15:01:00,81.5,67.5,29.83,North,5,12.0,-999.0,62,0.00,,,0.00,PyWeather,2013-01-14 01:01:00,
2013-01-13 15:06:00,80.7,66.7,29.83,North,5,12.0,-999.0,62,0.00,,,0.00,PyWeather,2013-01-14 01:06:00,
2013-01-13 15:11:00,80.3,67.3,29.83,North,350,12.0,-999.0,64,0.00,,,0.00,PyWeather,2013-01-14 01:11:00,
2013-01-13 15:16:00,80.3,67.7,29.83,North,350,10.0,-999.0,65,0.00,,,0.00,PyWeather,2013-01-14 01:16:00,
2013-01-13 15:21:00,80.2,67.2,29.83,North,355,10.0,-999.0,64,0.00,,,0.00,PyWeather,2013-01-14 01:21:00,
2013-01-13 15:26:00,79.7,67.6,29.83,North,360,11.0,-999.0,66,0.00,,,0.00,PyWeather,2013-01-14 01:26:00,
2013-01-13 15:28:00,79.8,66.8,29.84,North,360,9.0,-999.0,64,0.00,,,0.00,PyWeather,2013-01-14 01:28:00,
2013-01-13 15:29:00,79.8,66.8,29.84,North,9,9.0,-999.0,64,0.00,,,0.00,PyWeather,2013-01-14 01:29:00,
2013-01-13 15:30:00,79.8,67.2,29.84,NE,45,9.0,-999.0,65,0.00,,,0.00,PyWeather,2013-01-14 01:30:00,
2013-01-13 15:31:00,79.6,67.0,29.83,North,9,11.0,-999.0,65,0.00,,,0.00,PyWeather,2013-01-14 01:31:00,
2013-01-13 15:32:00,79.9,66.9,29.84,NNE,12,9.0,-999.0,64,0.00,,,0.00,PyWeather,2013-01-14 01:32:00,
2013-01-13 15:34:00,79.8,66.8,29.84,North,9,8.0,-999.0,64,0.00,,,0.00,PyWeather,2013-01-14 01:34:00,
2013-01-13 15:35:00,79.7,67.1,29.84,North,5,9.0,-999.0,65,0.00,,,0.00,PyWeather,2013-01-14 01:35:00,
2013-01-13 15:36:00,79.6,67.0,29.83,NNW,342,11.0,-999.0,65,0.00,,,0.00,PyWeather,2013-01-14 01:36:00,
2013-01-13 15:39:00,79.3,66.8,29.84,NNE,12,9.0,-999.0,65,0.00,,,0.00,PyWeather,2013-01-14 01:39:00,
2013-01-13 15:40:00,79.2,66.7,29.84,North,9,10.0,-999.0,65,0.00,,,0.00,PyWeather,2013-01-14 01:40:00,
2013-01-13 15:41:00,79.8,67.2,29.83,North,351,10.0,-999.0,65,0.00,,,0.00,PyWeather,2013-01-14 01:41:00,
2013-01-13 15:43:00,79.3,67.2,29.84,NNE,13,10.0,-999.0,66,0.00,,,0.00,PyWeather,2013-01-14 01:43:00,
2013-01-13 15:45:00,79.5,67.4,29.84,North,360,10.0,-999.0,66,0.00,,,0.00,PyWeather,2013-01-14 01:45:00,
2013-01-13 15:46:00,79.9,66.9,29.84,NE,38,9.0,-999.0,64,0.00,,,0.00,PyWeather,2013-01-14 01:46:00,
2013-01-13 15:47:00,79.6,67.5,29.84,NNW,334,10.0,-999.0,66,0.00,,,0.00,PyWeather,2013-01-14 01:47:00,
2013-01-13 15:49:00,79.5,67.4,29.84,NNW,348,10.0,-999.0,66,0.00,,,0.00,PyWeather,2013-01-14 01:49:00,
2013-01-13 15:51:00,79.4,66.8,29.84,NNE,14,9.0,-999.0,65,0.00,,,0.00,PyWeather,2013-01-14 01:51:00,
2013-01-13 15:56:00,79.3,67.2,29.84,North,355,10.0,-999.0,66,0.00,,,0.00,PyWeather,2013-01-14 01:56:00,
2013-01-13 16:02:00,79.6,67.5,29.84,NNW,342,10.0,-999.0,66,0.00,,,0.00,PyWeather,2013-01-14 02:02:00,
2013-01-13 16:07:00,79.5,67.4,29.84,NNW,329,10.0,-999.0,66,0.00,,,0.00,PyWeather,2013-01-14 02:07:00,
2013-01-13 16:11:00,79.0,68.2,29.84,NNW,344,10.0,-999.0,69,0.00,,,0.00,PyWeather,2013-01-14 02:11:00,
2013-01-13 16:12:00,79.3,67.2,29.84,NNW,331,10.0,-999.0,66,0.00,,,0.00,PyWeather,2013-01-14 02:12:00,
2013-01-13 16:13:00,78.9,68.5,29.84,North,351,10.0,-999.0,70,0.00,,,0.00,PyWeather,2013-01-14 02:13:00,
2013-01-13 16:16:00,78.7,68.3,29.84,NNW,335,10.0,-999.0,70,0.00,,,0.00,PyWeather,2013-01-14 02:16:00,
2013-01-13 16:17:00,79.5,67.4,29.84,NNW,346,10.0,-999.0,66,0.00,,,0.00,PyWeather,2013-01-14 02:17:00,
2013-01-13 16:19:00,78.7,68.3,29.85,NW,311,10.0,-999.0,70,0.00,,,0.00,PyWeather,2013-01-14 02:19:00,
2013-01-13 16:20:00,78.7,68.3,29.85,NNW,330,10.0,-999.0,70,0.00,,,0.00,PyWeather,2013-01-14 02:20:00,
2013-01-13 16:21:00,78.6,67.8,29.85,NNW,332,10.0,-999.0,69,0.00,,,0.00,PyWeather,2013-01-14 02:21:00,
2013-01-13 16:22:00,79.2,68.0,29.84,North,355,10.0,-999.0,68,0.00,,,0.00,PyWeather,2013-01-14 02:22:00,
2013-01-13 16:23:00,78.5,67.7,29.85,NNW,347,10.0,-999.0,69,0.00,,,0.00,PyWeather,2013-01-14 02:23:00,
2013-01-13 16:26:00,78.6,68.2,29.85,NNW,340,10.0,-999.0,70,0.00,,,0.00,PyWeather,2013-01-14 02:26:00,
2013-01-13 16:27:00,78.6,68.6,29.85,North,351,10.0,-999.0,71,0.00,,,0.00,PyWeather,2013-01-14 02:27:00,
2013-01-13 16:28:00,78.9,68.5,29.84,North,355,10.0,-999.0,70,0.00,,,0.00,PyWeather,2013-01-14 02:28:00,
2013-01-13 16:30:00,78.8,68.4,29.85,NNW,337,10.0,-999.0,70,0.00,,,0.00,PyWeather,2013-01-14 02:30:00,
2013-01-13 16:33:00,78.7,68.3,29.85,NNW,335,10.0,-999.0,70,0.00,,,0.00,PyWeather,2013-01-14 02:33:00,
2013-01-13 16:38:00,78.5,68.1,29.85,NNW,342,10.0,-999.0,70,0.00,,,0.00,PyWeather,2013-01-14 02:38:00,
2013-01-13 16:39:00,78.1,68.1,29.85,NNW,333,10.0,-999.0,71,0.00,,,0.00,PyWeather,2013-01-14 02:39:00,
2013-01-13 16:40:00,78.1,68.5,29.85,NNW,335,10.0,-999.0,72,0.00,,,0.00,PyWeather,2013-01-14 02:40:00,
2013-01-13 16:42:00,78.0,68.4,29.85,NNW,338,10.0,-999.0,72,0.00,,,0.00,PyWeather,2013-01-14 02:42:00,
2013-01-13 16:43:00,78.8,68.4,29.85,NNW,339,10.0,-999.0,70,0.00,,,0.00,PyWeather,2013-01-14 02:43:00,
2013-01-13 16:46:00,77.7,68.5,29.86,NNW,328,10.0,-999.0,73,0.00,,,0.00,PyWeather,2013-01-14 02:46:00,
2013-01-13 16:48:00,78.6,68.6,29.85,NNW,341,10.0,-999.0,71,0.00,,,0.00,PyWeather,2013-01-14 02:48:00,
2013-01-13 16:49:00,77.6,68.4,29.86,NNW,347,9.0,-999.0,73,0.00,,,0.00,PyWeather,2013-01-14 02:49:00,
2013-01-13 16:50:00,77.4,68.3,29.86,NW,323,9.0,-999.0,73,0.00,,,0.00,PyWeather,2013-01-14 02:50:00,
2013-01-13 16:51:00,77.4,68.6,29.86,NNW,327,9.0,-999.0,74,0.00,,,0.00,PyWeather,2013-01-14 02:51:00,
2013-01-13 16:54:00,78.1,68.5,29.85,NNW,332,10.0,-999.0,72,0.00,,,0.00,PyWeather,2013-01-14 02:54:00,
2013-01-13 16:55:00,77.1,68.3,29.86,NW,323,9.0,-999.0,74,0.00,,,0.00,PyWeather,2013-01-14 02:55:00,
2013-01-13 16:56:00,77.0,68.3,29.86,NNW,342,9.0,-999.0,74,0.00,,,0.00,PyWeather,2013-01-14 02:56:00,
2013-01-13 16:57:00,77.0,68.6,29.86,NNW,347,9.0,-999.0,75,0.00,,,0.00,PyWeather,2013-01-14 02:57:00,
2013-01-13 16:58:00,77.0,68.6,29.86,NNW,338,8.0,-999.0,75,0.00,,,0.00,PyWeather,2013-01-14 02:58:00,
2013-01-13 16:59:00,77.8,68.2,29.86,NNW,348,10.0,-999.0,72,0.00,,,0.00,PyWeather,2013-01-14 02:59:00,
2013-01-13 17:00:00,77.0,68.6,29.86,NNW,344,8.0,-999.0,75,0.00,,,0.00,PyWeather,2013-01-14 03:00:00,
2013-01-13 17:01:00,77.0,68.6,29.86,NNW,336,8.0,-999.0,75,0.00,,,0.00,PyWeather,2013-01-14 03:01:00,
2013-01-13 17:02:00,76.9,68.5,29.86,NNW,343,7.0,-999.0,75,0.00,,,0.00,PyWeather,2013-01-14 03:02:00,
2013-01-13 17:03:00,76.9,68.5,29.86,NNW,331,7.0,-999.0,75,0.00,,,0.00,PyWeather,2013-01-14 03:03:00,
2013-01-13 17:04:00,77.5,68.3,29.86,NNW,332,9.0,-999.0,73,0.00,,,0.00,PyWeather,2013-01-14 03:04:00,
2013-01-13 17:05:00,76.9,68.5,29.86,NNW,327,7.0,-999.0,75,0.00,,,0.00,PyWeather,2013-01-14 03:05:00,
2013-01-13 17:06:00,76.9,68.5,29.86,NNW,328,6.0,-999.0,75,0.00,,,0.00,PyWeather,2013-01-14 03:06:00,
2013-01-13 17:08:00,76.8,68.4,29.86,NNW,346,6.0,-999.0,75,0.00,,,0.00,PyWeather,2013-01-14 03:08:00,
2013-01-13 17:09:00,77.1,68.3,29.86,NNW,342,9.0,-999.0,74,0.00,,,0.00,PyWeather,2013-01-14 03:09:00,
2013-01-13 17:11:00,76.7,68.3,29.86,NNW,346,6.0,-999.0,75,0.00,,,0.00,PyWeather,2013-01-14 03:11:00,
2013-01-13 17:12:00,76.7,68.3,29.86,NNW,343,6.0,-999.0,75,0.00,,,0.00,PyWeather,2013-01-14 03:12:00,
2013-01-13 17:13:00,76.7,68.7,29.86,NNW,348,6.0,-999.0,76,0.00,,,0.00,PyWeather,2013-01-14 03:13:00,
2013-01-13 17:14:00,77.0,68.6,29.86,NNW,339,8.0,-999.0,75,0.00,,,0.00,PyWeather,2013-01-14 03:14:00,
2013-01-13 17:15:00,76.6,68.6,29.86,North,355,6.0,-999.0,76,0.00,,,0.00,PyWeather,2013-01-14 03:15:00,
2013-01-13 17:16:00,76.6,68.6,29.86,North,355,6.0,-999.0,76,0.00,,,0.00,PyWeather,2013-01-14 03:16:00,
2013-01-13 17:19:00,76.6,68.6,29.86,North,349,5.0,-999.0,76,0.00,,,0.00,PyWeather,2013-01-14 03:19:00,
2013-01-13 17:20:00,76.8,68.4,29.86,NNW,328,6.0,-999.0,75,0.00,,,0.00,PyWeather,2013-01-14 03:20:00,
2013-01-13 17:21:00,76.5,68.5,29.86,NNW,339,6.0,-999.0,76,0.00,,,0.00,PyWeather,2013-01-14 03:21:00,
2013-01-13 17:22:00,76.5,68.5,29.86,NNW,339,6.0,-999.0,76,0.00,,,0.00,PyWeather,2013-01-14 03:22:00,
2013-01-13 17:23:00,76.4,68.4,29.86,NNW,340,6.0,-999.0,76,0.00,,,0.00,PyWeather,2013-01-14 03:23:00,
2013-01-13 17:24:00,76.4,68.4,29.86,NNW,343,6.0,-999.0,76,0.00,,,0.00,PyWeather,2013-01-14 03:24:00,
2013-01-13 17:25:00,76.4,68.4,29.86,NNW,342,6.0,-999.0,76,0.00,,,0.00,PyWeather,2013-01-14 03:25:00,
2013-01-13 17:26:00,76.7,68.3,29.86,NNW,342,6.0,-999.0,75,0.00,,,0.00,PyWeather,2013-01-14 03:26:00,
2013-01-13 17:27:00,76.4,68.4,29.86,NNW,343,6.0,-999.0,76,0.00,,,0.00,PyWeather,2013-01-14 03:27:00,
2013-01-13 17:28:00,76.4,68.4,29.86,NNW,342,6.0,-999.0,76,0.00,,,0.00,PyWeather,2013-01-14 03:28:00,
2013-01-13 17:29:00,76.4,68.4,29.86,NNW,342,6.0,-999.0,76,0.00,,,0.00,PyWeather,2013-01-14 03:29:00,
2013-01-13 17:30:00,76.4,68.4,29.86,NNW,343,5.0,-999.0,76,0.00,,,0.00,PyWeather,2013-01-14 03:30:00,
2013-01-13 17:31:00,76.6,68.6,29.86,North,355,6.0,-999.0,76,0.00,,,0.00,PyWeather,2013-01-14 03:31:00,
2013-01-13 17:33:00,76.3,68.3,29.87,NNW,342,5.0,-999.0,76,0.00,,,0.00,PyWeather,2013-01-14 03:33:00,
2013-01-13 17:34:00,76.2,68.2,29.86,NNW,343,5.0,-999.0,76,0.00,,,0.00,PyWeather,2013-01-14 03:34:00,
2013-01-13 17:35:00,76.2,68.2,29.86,NNW,342,5.0,-999.0,76,0.00,,,0.00,PyWeather,2013-01-14 03:35:00,
2013-01-13 17:36:00,76.5,68.5,29.86,NNW,338,6.0,-999.0,76,0.00,,,0.00,PyWeather,2013-01-14 03:36:00,
2013-01-13 17:37:00,76.1,68.5,29.86,NNW,342,5.0,-999.0,77,0.00,,,0.00,PyWeather,2013-01-14 03:37:00,
2013-01-13 17:40:00,76.1,68.5,29.86,NNW,342,4.0,-999.0,77,0.00,,,0.00,PyWeather,2013-01-14 03:40:00,
2013-01-13 17:41:00,76.4,68.4,29.86,NNW,342,6.0,-999.0,76,0.00,,,0.00,PyWeather,2013-01-14 03:41:00,
2013-01-13 17:46:00,76.3,68.3,29.86,NNW,342,5.0,-999.0,76,0.00,,,0.00,PyWeather,2013-01-14 03:46:00,
2013-01-13 17:51:00,76.1,68.5,29.86,NNW,342,5.0,-999.0,77,0.00,,,0.00,PyWeather,2013-01-14 03:51:00,
2013-01-13 17:57:00,76.1,68.1,29.87,NNW,342,3.0,-999.0,76,0.00,,,0.00,PyWeather,2013-01-14 03:57:00,
2013-01-13 18:02:00,75.9,67.9,29.87,NNW,343,2.0,-999.0,76,0.00,,,0.00,PyWeather,2013-01-14 04:02:00,
2013-01-13 18:07:00,75.8,68.2,29.87,NNW,342,2.0,-999.0,77,0.00,,,0.00,PyWeather,2013-01-14 04:07:00,
2013-01-13 18:12:00,75.7,68.1,29.87,NNW,342,1.0,-999.0,77,0.00,,,0.00,PyWeather,2013-01-14 04:12:00,
2013-01-13 18:14:00,75.5,68.3,29.87,NNW,342,0.0,-999.0,78,0.00,,,0.00,PyWeather,2013-01-14 04:14:00,
2013-01-13 18:17:00,75.5,68.3,29.87,WNW,298,1.0,-999.0,78,0.00,,,0.00,PyWeather,2013-01-14 04:17:00,
2013-01-13 18:18:00,75.6,68.0,29.87,NNW,343,0.0,-999.0,77,0.00,,,0.00,PyWeather,2013-01-14 04:18:00,
2013-01-13 18:19:00,75.4,68.2,29.87,WNW,298,1.0,-999.0,78,0.00,,,0.00,PyWeather,2013-01-14 04:19:00,
2013-01-13 18:20:00,75.4,68.5,29.87,WNW,298,1.0,-999.0,79,0.00,,,0.00,PyWeather,2013-01-14 04:20:00,
2013-01-13 18:21:00,75.4,68.5,29.86,WNW,298,1.0,-999.0,79,0.00,,,0.00,PyWeather,2013-01-14 04:21:00,
2013-01-13 18:22:00,75.4,68.5,29.86,WNW,297,1.0,-999.0,79,0.00,,,0.00,PyWeather,2013-01-14 04:22:00,
2013-01-13 18:23:00,75.5,68.3,29.87,NNW,342,0.0,-999.0,78,0.00,,,0.00,PyWeather,2013-01-14 04:23:00,
2013-01-13 18:24:00,75.3,68.4,29.86,WNW,298,1.0,-999.0,79,0.00,,,0.00,PyWeather,2013-01-14 04:24:00,
2013-01-13 18:26:00,75.3,68.4,29.86,WNW,298,1.0,-999.0,79,0.00,,,0.00,PyWeather,2013-01-14 04:26:00,
2013-01-13 18:27:00,75.3,68.4,29.86,WNW,298,0.0,-999.0,79,0.00,,,0.00,PyWeather,2013-01-14 04:27:00,
2013-01-13 18:28:00,75.4,68.2,29.87,WNW,297,0.0,-999.0,78,0.00,,,0.00,PyWeather,2013-01-14 04:28:00,
2013-01-13 18:29:00,75.3,68.4,29.86,WNW,297,0.0,-999.0,79,0.00,,,0.00,PyWeather,2013-01-14 04:29:00,
2013-01-13 18:34:00,75.4,68.5,29.87,WNW,298,1.0,-999.0,79,0.00,,,0.00,PyWeather,2013-01-14 04:34:00,
2013-01-13 18:39:00,75.3,68.4,29.86,WNW,297,1.0,-999.0,79,0.00,,,0.00,PyWeather,2013-01-14 04:39:00,
2013-01-13 18:44:00,75.3,68.4,29.86,WNW,298,0.0,-999.0,79,0.00,,,0.00,PyWeather,2013-01-14 04:44:00,
2013-01-13 18:46:00,74.7,68.2,29.86,WNW,297,0.0,-999.0,80,0.00,,,0.00,PyWeather,2013-01-14 04:46:00,
2013-01-13 18:48:00,74.6,68.1,29.86,WNW,298,0.0,-999.0,80,0.00,,,0.00,PyWeather,2013-01-14 04:48:00,
2013-01-13 18:49:00,75.1,68.3,29.86,WNW,297,1.0,-999.0,79,0.00,,,0.00,PyWeather,2013-01-14 04:49:00,
2013-01-13 18:50:00,74.5,68.0,29.86,WNW,297,0.0,-999.0,80,0.00,,,0.00,PyWeather,2013-01-14 04:50:00,
2013-01-13 18:51:00,74.5,68.0,29.86,WNW,297,0.0,-999.0,80,0.00,,,0.00,PyWeather,2013-01-14 04:51:00,
2013-01-13 18:52:00,74.5,68.0,29.86,WNW,297,0.0,-999.0,80,0.00,,,0.00,PyWeather,2013-01-14 04:52:00,
2013-01-13 18:53:00,74.4,67.9,29.86,WNW,298,0.0,-999.0,80,0.00,,,0.00,PyWeather,2013-01-14 04:53:00,
2013-01-13 18:54:00,74.9,68.1,29.86,WNW,298,1.0,-999.0,79,0.00,,,0.00,PyWeather,2013-01-14 04:54:00,
2013-01-13 18:55:00,74.3,67.8,29.86,WNW,297,0.0,-999.0,80,0.00,,,0.00,PyWeather,2013-01-14 04:55:00,
2013-01-13 18:56:00,74.3,67.8,29.86,WNW,298,0.0,-999.0,80,0.00,,,0.00,PyWeather,2013-01-14 04:56:00,
2013-01-13 18:57:00,74.2,67.4,29.87,WNW,298,0.0,-999.0,79,0.00,,,0.00,PyWeather,2013-01-14 04:57:00,
2013-01-13 18:58:00,74.2,67.4,29.87,WNW,297,0.0,-999.0,79,0.00,,,0.00,PyWeather,2013-01-14 04:58:00,
2013-01-13 18:59:00,74.1,67.3,29.86,WNW,298,0.0,-999.0,79,0.00,,,0.00,PyWeather,2013-01-14 04:59:00,
2013-01-13 19:00:00,74.0,67.2,29.86,WNW,298,0.0,-999.0,79,0.00,,,0.00,PyWeather,2013-01-14 05:00:00,
2013-01-13 19:01:00,74.0,67.2,29.86,WNW,298,0.0,-999.0,79,0.00,,,0.00,PyWeather,2013-01-14 05:01:00,
2013-01-13 19:02:00,73.9,67.4,29.86,WNW,297,0.0,-999.0,80,0.00,,,0.00,PyWeather,2013-01-14 05:02:00,
2013-01-13 19:03:00,73.9,67.4,29.87,WNW,297,0.0,-999.0,80,0.00,,,0.00,PyWeather,2013-01-14 05:03:00,
2013-01-13 19:04:00,73.8,67.3,29.86,WNW,298,0.0,-999.0,80,0.00,,,0.00,PyWeather,2013-01-14 05:04:00,
2013-01-13 19:05:00,73.8,67.3,29.86,WNW,297,0.0,-999.0,80,0.00,,,0.00,PyWeather,2013-01-14 05:05:00,
2013-01-13 19:06:00,73.8,67.3,29.86,WNW,298,0.0,-999.0,80,0.00,,,0.00,PyWeather,2013-01-14 05:06:00,
2013-01-13 19:07:00,73.8,67.3,29.86,WNW,298,0.0,-999.0,80,0.00,,,0.00,PyWeather,2013-01-14 05:07:00,
2013-01-13 19:08:00,73.8,67.3,29.87,WNW,298,0.0,-999.0,80,0.00,,,0.00,PyWeather,2013-01-14 05:08:00,
2013-01-13 19:09:00,73.8,67.3,29.86,WNW,298,0.0,-999.0,80,0.00,,,0.00,PyWeather,2013-01-14 05:09:00,
2013-01-13 19:10:00,73.7,67.2,29.86,WNW,298,0.0,-999.0,80,0.00,,,0.00,PyWeather,2013-01-14 05:10:00,
2013-01-13 19:11:00,73.7,67.2,29.86,WNW,297,0.0,-999.0,80,0.00,,,0.00,PyWeather,2013-01-14 05:11:00,
2013-01-13 19:12:00,73.7,67.6,29.86,WNW,298,0.0,-999.0,81,0.00,,,0.00,PyWeather,2013-01-14 05:12:00,
2013-01-13 19:19:00,73.8,67.3,29.86,WNW,297,0.0,-999.0,80,0.00,,,0.00,PyWeather,2013-01-14 05:19:00,
2013-01-13 19:24:00,73.7,67.2,29.86,WNW,298,0.0,-999.0,80,0.00,,,0.00,PyWeather,2013-01-14 05:24:00,
2013-01-13 19:29:00,73.6,67.1,29.86,WNW,298,0.0,-999.0,80,0.00,,,0.00,PyWeather,2013-01-14 05:29:00,
2013-01-13 19:34:00,73.5,67.4,29.86,WNW,298,0.0,-999.0,81,0.00,,,0.00,PyWeather,2013-01-14 05:34:00,
2013-01-13 19:38:00,73.3,67.2,29.87,WNW,297,0.0,-999.0,81,0.00,,,0.00,PyWeather,2013-01-14 05:38:00,
2013-01-13 19:39:00,73.5,67.4,29.86,WNW,298,0.0,-999.0,81,0.00,,,0.00,PyWeather,2013-01-14 05:39:00,
2013-01-13 19:40:00,73.2,67.1,29.87,WNW,297,0.0,-999.0,81,0.00,,,0.00,PyWeather,2013-01-14 05:40:00,
2013-01-13 19:41:00,73.1,67.0,29.87,WNW,298,0.0,-999.0,81,0.00,,,0.00,PyWeather,2013-01-14 05:41:00,
2013-01-13 19:42:00,73.1,67.0,29.87,WNW,298,0.0,-999.0,81,0.00,,,0.00,PyWeather,2013-01-14 05:42:00,
2013-01-13 19:43:00,73.0,66.9,29.87,WNW,298,0.0,-999.0,81,0.00,,,0.00,PyWeather,2013-01-14 05:43:00,
2013-01-13 19:44:00,73.4,67.3,29.86,WNW,298,0.0,-999.0,81,0.00,,,0.00,PyWeather,2013-01-14 05:44:00,
2013-01-13 19:45:00,73.0,66.9,29.87,WNW,298,0.0,-999.0,81,0.00,,,0.00,PyWeather,2013-01-14 05:45:00,
2013-01-13 19:46:00,72.9,66.8,29.87,WNW,297,0.0,-999.0,81,0.00,,,0.00,PyWeather,2013-01-14 05:46:00,
2013-01-13 19:48:00,72.8,66.7,29.87,WNW,297,0.0,-999.0,81,0.00,,,0.00,PyWeather,2013-01-14 05:48:00,
2013-01-13 19:49:00,73.4,67.3,29.87,WNW,298,0.0,-999.0,81,0.00,,,0.00,PyWeather,2013-01-14 05:49:00,
2013-01-13 19:50:00,72.7,66.6,29.87,WNW,298,0.0,-999.0,81,0.00,,,0.00,PyWeather,2013-01-14 05:50:00,
2013-01-13 19:51:00,72.6,66.2,29.87,WNW,297,0.0,-999.0,80,0.00,,,0.00,PyWeather,2013-01-14 05:51:00,
2013-01-13 19:52:00,72.5,66.1,29.87,WNW,298,0.0,-999.0,80,0.00,,,0.00,PyWeather,2013-01-14 05:52:00,
2013-01-13 19:53:00,72.5,66.4,29.87,WNW,297,0.0,-999.0,81,0.00,,,0.00,PyWeather,2013-01-14 05:53:00,
2013-01-13 19:54:00,72.4,66.3,29.87,WNW,297,0.0,-999.0,81,0.00,,,0.00,PyWeather,2013-01-14 05:54:00,
2013-01-13 19:55:00,73.2,67.1,29.87,WNW,297,0.0,-999.0,81,0.00,,,0.00,PyWeather,2013-01-14 05:55:00,
2013-01-13 19:59:00,72.2,66.1,29.87,WNW,298,0.0,-999.0,81,0.00,,,0.00,PyWeather,2013-01-14 05:59:00,
2013-01-13 20:00:00,72.9,66.8,29.87,WNW,298,0.0,-999.0,81,0.00,,,0.00,PyWeather,2013-01-14 06:00:00,
2013-01-13 20:01:00,72.1,66.0,29.87,WNW,297,0.0,-999.0,81,0.00,,,0.00,PyWeather,2013-01-14 06:01:00,
2013-01-13 20:02:00,72.0,65.9,29.87,WNW,297,0.0,-999.0,81,0.00,,,0.00,PyWeather,2013-01-14 06:02:00,
2013-01-13 20:03:00,72.0,65.9,29.87,WNW,298,0.0,-999.0,81,0.00,,,0.00,PyWeather,2013-01-14 06:03:00,
2013-01-13 20:05:00,72.6,66.2,29.87,WNW,297,0.0,-999.0,80,0.00,,,0.00,PyWeather,2013-01-14 06:05:00,
2013-01-13 20:06:00,71.9,65.5,29.87,WNW,298,0.0,-999.0,80,0.00,,,0.00,PyWeather,2013-01-14 06:06:00,
2013-01-13 20:07:00,71.8,65.4,29.87,WNW,297,0.0,-999.0,80,0.00,,,0.00,PyWeather,2013-01-14 06:07:00,
2013-01-13 20:08:00,71.8,65.4,29.87,WNW,298,0.0,-999.0,80,0.00,,,0.00,PyWeather,2013-01-14 06:08:00,
2013-01-13 20:09:00,71.7,65.3,29.87,WNW,297,0.0,-999.0,80,0.00,,,0.00,PyWeather,2013-01-14 06:09:00,
2013-01-13 20:10:00,72.4,66.3,29.87,WNW,298,0.0,-999.0,81,0.00,,,0.00,PyWeather,2013-01-14 06:10:00,
2013-01-13 20:11:00,71.7,65.6,29.87,WNW,297,0.0,-999.0,81,0.00,,,0.00,PyWeather,2013-01-14 06:11:00,
2013-01-13 20:12:00,71.6,65.5,29.87,WNW,296,0.0,-999.0,81,0.00,,,0.00,PyWeather,2013-01-14 06:12:00,
2013-01-13 20:13:00,71.6,65.5,29.87,WNW,298,0.0,-999.0,81,0.00,,,0.00,PyWeather,2013-01-14 06:13:00,
2013-01-13 20:14:00,71.6,65.5,29.87,WNW,297,0.0,-999.0,81,0.00,,,0.00,PyWeather,2013-01-14 06:14:00,
2013-01-13 20:15:00,72.1,66.0,29.87,WNW,296,0.0,-999.0,81,0.00,,,0.00,PyWeather,2013-01-14 06:15:00,
2013-01-13 20:17:00,71.6,65.5,29.87,WNW,298,0.0,-999.0,81,0.00,,,0.00,PyWeather,2013-01-14 06:17:00,
2013-01-13 20:18:00,71.5,65.4,29.87,WNW,298,0.0,-999.0,81,0.00,,,0.00,PyWeather,2013-01-14 06:18:00,
2013-01-13 20:19:00,71.5,65.4,29.87,WNW,297,0.0,-999.0,81,0.00,,,0.00,PyWeather,2013-01-14 06:19:00,
2013-01-13 20:20:00,71.9,65.5,29.87,WNW,298,0.0,-999.0,80,0.00,,,0.00,PyWeather,2013-01-14 06:20:00,
2013-01-13 20:21:00,71.4,65.3,29.87,WNW,298,0.0,-999.0,81,0.00,,,0.00,PyWeather,2013-01-14 06:21:00,
2013-01-13 20:22:00,71.4,65.3,29.87,WNW,297,0.0,-999.0,81,0.00,,,0.00,PyWeather,2013-01-14 06:22:00,
2013-01-13 20:23:00,71.4,65.3,29.88,WNW,297,0.0,-999.0,81,0.00,,,0.00,PyWeather,2013-01-14 06:23:00,
2013-01-13 20:24:00,71.4,65.3,29.88,WNW,298,0.0,-999.0,81,0.00,,,0.00,PyWeather,2013-01-14 06:24:00,
2013-01-13 20:25:00,71.6,65.5,29.87,WNW,297,0.0,-999.0,81,0.00,,,0.00,PyWeather,2013-01-14 06:25:00,
2013-01-13 20:26:00,71.4,65.3,29.87,WNW,298,0.0,-999.0,81,0.00,,,0.00,PyWeather,2013-01-14 06:26:00,
2013-01-13 20:27:00,71.4,65.3,29.88,WNW,297,0.0,-999.0,81,0.00,,,0.00,PyWeather,2013-01-14 06:27:00,
2013-01-13 20:28:00,71.4,65.3,29.87,WNW,297,0.0,-999.0,81,0.00,,,0.00,PyWeather,2013-01-14 06:28:00,
2013-01-13 20:29:00,71.4,65.3,29.88,WNW,297,0.0,-999.0,81,0.00,,,0.00,PyWeather,2013-01-14 06:29:00,
2013-01-13 20:30:00,71.6,65.5,29.87,WNW,297,0.0,-999.0,81,0.00,,,0.00,PyWeather,2013-01-14 06:30:00,
2013-01-13 20:32:00,71.5,65.4,29.88,WNW,297,0.0,-999.0,81,0.00,,,0.00,PyWeather,2013-01-14 06:32:00,
2013-01-13 20:33:00,71.5,65.4,29.88,WNW,297,0.0,-999.0,81,0.00,,,0.00,PyWeather,2013-01-14 06:33:00,
2013-01-13 20:35:00,71.4,65.3,29.87,WNW,298,0.0,-999.0,81,0.00,,,0.00,PyWeather,2013-01-14 06:35:00,
2013-01-13 20:41:00,71.4,65.3,29.88,WNW,297,0.0,-999.0,81,0.00,,,0.00,PyWeather,2013-01-14 06:41:00,
2013-01-13 20:42:00,71.2,65.1,29.87,WNW,297,0.0,-999.0,81,0.00,,,0.00,PyWeather,2013-01-14 06:42:00,
2013-01-13 20:43:00,71.2,65.1,29.87,WNW,297,0.0,-999.0,81,0.00,,,0.00,PyWeather,2013-01-14 06:43:00,
2013-01-13 20:44:00,71.1,65.0,29.88,WNW,297,0.0,-999.0,81,0.00,,,0.00,PyWeather,2013-01-14 06:44:00,
2013-01-13 20:46:00,71.5,65.4,29.87,WNW,298,0.0,-999.0,81,0.00,,,0.00,PyWeather,2013-01-14 06:46:00,
2013-01-13 20:47:00,70.9,64.5,29.88,WNW,298,0.0,-999.0,80,0.00,,,0.00,PyWeather,2013-01-14 06:47:00,
2013-01-13 20:48:00,70.8,64.8,29.88,WNW,298,0.0,-999.0,81,0.00,,,0.00,PyWeather,2013-01-14 06:48:00,
2013-01-13 20:49:00,70.8,64.8,29.88,WNW,297,0.0,-999.0,81,0.00,,,0.00,PyWeather,2013-01-14 06:49:00,
2013-01-13 20:51:00,71.5,65.4,29.88,WNW,297,0.0,-999.0,81,0.00,,,0.00,PyWeather,2013-01-14 06:51:00,
2013-01-13 20:52:00,70.8,64.8,29.88,WNW,298,0.0,-999.0,81,0.00,,,0.00,PyWeather,2013-01-14 06:52:00,
2013-01-13 20:53:00,70.8,64.8,29.88,WNW,297,0.0,-999.0,81,0.00,,,0.00,PyWeather,2013-01-14 06:53:00,
2013-01-13 20:54:00,70.8,65.1,29.88,WNW,297,0.0,-999.0,82,0.00,,,0.00,PyWeather,2013-01-14 06:54:00,
2013-01-13 20:55:00,70.8,65.1,29.88,WNW,298,0.0,-999.0,82,0.00,,,0.00,PyWeather,2013-01-14 06:55:00,
2013-01-13 20:56:00,71.3,65.2,29.87,WNW,298,0.0,-999.0,81,0.00,,,0.00,PyWeather,2013-01-14 06:56:00,
2013-01-13 20:57:00,70.8,65.1,29.88,WNW,298,0.0,-999.0,82,0.00,,,0.00,PyWeather,2013-01-14 06:57:00,
2013-01-13 20:58:00,70.9,65.2,29.88,WNW,298,0.0,-999.0,82,0.00,,,0.00,PyWeather,2013-01-14 06:58:00,
2013-01-13 20:59:00,70.9,65.2,29.88,WNW,298,0.0,-999.0,82,0.00,,,0.00,PyWeather,2013-01-14 06:59:00,
2013-01-13 21:00:00,70.9,65.2,29.88,WNW,298,0.0,-999.0,82,0.00,,,0.00,PyWeather,2013-01-14 07:00:00,
2013-01-13 21:01:00,70.9,64.5,29.88,WNW,298,0.0,-999.0,80,0.00,,,0.00,PyWeather,2013-01-14 07:01:00,
2013-01-13 21:02:00,70.9,65.2,29.88,WNW,298,0.0,-999.0,82,0.00,,,0.00,PyWeather,2013-01-14 07:02:00,
2013-01-13 21:03:00,70.9,65.2,29.88,WNW,297,0.0,-999.0,82,0.00,,,0.00,PyWeather,2013-01-14 07:03:00,
2013-01-13 21:04:00,70.9,65.2,29.88,WNW,297,0.0,-999.0,82,0.00,,,0.00,PyWeather,2013-01-14 07:04:00,
2013-01-13 21:05:00,70.9,65.2,29.88,WNW,297,0.0,-999.0,82,0.00,,,0.00,PyWeather,2013-01-14 07:05:00,
2013-01-13 21:06:00,70.8,64.8,29.88,WNW,297,0.0,-999.0,81,0.00,,,0.00,PyWeather,2013-01-14 07:06:00,
2013-01-13 21:07:00,70.8,65.1,29.88,WNW,298,0.0,-999.0,82,0.00,,,0.00,PyWeather,2013-01-14 07:07:00,
2013-01-13 21:08:00,70.9,65.2,29.88,WNW,297,0.0,-999.0,82,0.00,,,0.00,PyWeather,2013-01-14 07:08:00,
2013-01-13 21:09:00,70.8,65.1,29.88,WNW,298,0.0,-999.0,82,0.00,,,0.00,PyWeather,2013-01-14 07:09:00,
2013-01-13 21:10:00,70.8,65.1,29.88,WNW,296,0.0,-999.0,82,0.00,,,0.00,PyWeather,2013-01-14 07:10:00,
2013-01-13 21:11:00,70.7,65.0,29.88,WNW,298,0.0,-999.0,82,0.00,,,0.00,PyWeather,2013-01-14 07:11:00,
2013-01-13 21:12:00,70.9,65.2,29.88,WNW,297,0.0,-999.0,82,0.00,,,0.00,PyWeather,2013-01-14 07:12:00,
2013-01-13 21:13:00,70.6,64.9,29.88,WNW,296,0.0,-999.0,82,0.00,,,0.00,PyWeather,2013-01-14 07:13:00,
2013-01-13 21:15:00,70.6,65.2,29.88,WNW,297,0.0,-999.0,83,0.00,,,0.00,PyWeather,2013-01-14 07:15:00,
2013-01-13 21:16:00,70.6,65.2,29.88,WNW,297,0.0,-999.0,83,0.00,,,0.00,PyWeather,2013-01-14 07:16:00,
2013-01-13 21:17:00,70.9,65.2,29.88,WNW,297,0.0,-999.0,82,0.00,,,0.00,PyWeather,2013-01-14 07:17:00,
2013-01-13 21:18:00,70.6,65.2,29.88,WNW,298,0.0,-999.0,83,0.00,,,0.00,PyWeather,2013-01-14 07:18:00,
2013-01-13 21:19:00,70.6,65.2,29.88,WNW,297,0.0,-999.0,83,0.00,,,0.00,PyWeather,2013-01-14 07:19:00,
2013-01-13 21:21:00,70.6,65.2,29.88,WNW,297,0.0,-999.0,83,0.00,,,0.00,PyWeather,2013-01-14 07:21:00,
2013-01-13 21:22:00,70.9,65.2,29.88,WNW,298,0.0,-999.0,82,0.00,,,0.00,PyWeather,2013-01-14 07:22:00,
2013-01-13 21:23:00,70.6,65.2,29.88,WNW,297,1.0,-999.0,83,0.00,,,0.00,PyWeather,2013-01-14 07:23:00,
2013-01-13 21:24:00,70.7,65.3,29.88,WNW,298,1.0,-999.0,83,0.00,,,0.00,PyWeather,2013-01-14 07:24:00,
2013-01-13 21:25:00,70.7,65.3,29.88,WNW,297,2.0,-999.0,83,0.00,,,0.00,PyWeather,2013-01-14 07:25:00,
2013-01-13 21:26:00,70.7,65.3,29.88,WNW,298,2.0,-999.0,83,0.00,,,0.00,PyWeather,2013-01-14 07:26:00,
2013-01-13 21:27:00,70.6,64.9,29.88,WNW,298,0.0,-999.0,82,0.00,,,0.00,PyWeather,2013-01-14 07:27:00,
2013-01-13 21:32:00,70.6,65.2,29.88,WNW,296,0.0,-999.0,83,0.00,,,0.00,PyWeather,2013-01-14 07:32:00,
2013-01-13 21:38:00,70.6,65.2,29.88,WNW,298,1.0,-999.0,83,0.00,,,0.00,PyWeather,2013-01-14 07:38:00,
2013-01-13 21:43:00,70.7,65.3,29.88,WNW,297,3.0,-999.0,83,0.00,,,0.00,PyWeather,2013-01-14 07:43:00,
2013-01-13 21:48:00,70.6,65.2,29.88,SE,124,5.0,-999.0,83,0.00,,,0.00,PyWeather,2013-01-14 07:48:00,
2013-01-13 21:53:00,70.6,65.6,29.88,ESE,123,5.0,-999.0,84,0.00,,,0.00,PyWeather,2013-01-14 07:53:00,
2013-01-13 21:59:00,70.6,65.6,29.88,ESE,123,4.0,-999.0,84,0.00,,,0.00,PyWeather,2013-01-14 07:59:00,
2013-01-13 22:04:00,70.6,65.6,29.89,ESE,123,3.0,-999.0,84,0.00,,,0.00,PyWeather,2013-01-14 08:04:00,
2013-01-13 22:09:00,70.7,65.7,29.89,ESE,119,3.0,-999.0,84,0.00,,,0.00,PyWeather,2013-01-14 08:09:00,
2013-01-13 22:14:00,70.6,65.6,29.89,ESE,105,4.0,-999.0,84,0.00,,,0.00,PyWeather,2013-01-14 08:14:00,
2013-01-13 22:15:00,70.5,65.1,29.88,ESE,123,5.0,-999.0,83,0.00,,,0.00,PyWeather,2013-01-14 08:15:00,
2013-01-13 22:16:00,70.4,65.0,29.88,ESE,123,5.0,-999.0,83,0.00,,,0.00,PyWeather,2013-01-14 08:16:00,
2013-01-13 22:17:00,70.4,65.0,29.88,ESE,121,5.0,-999.0,83,0.00,,,0.00,PyWeather,2013-01-14 08:17:00,
2013-01-13 22:18:00,70.4,65.0,29.88,ESE,122,5.0,-999.0,83,0.00,,,0.00,PyWeather,2013-01-14 08:18:00,
2013-01-13 22:19:00,70.7,65.7,29.89,ESE,109,3.0,-999.0,84,0.00,,,0.00,PyWeather,2013-01-14 08:19:00,
2013-01-13 22:20:00,70.4,65.0,29.88,ESE,120,5.0,-999.0,83,0.00,,,0.00,PyWeather,2013-01-14 08:20:00,
2013-01-13 22:21:00,70.4,65.0,29.88,ESE,121,4.0,-999.0,83,0.00,,,0.00,PyWeather,2013-01-14 08:21:00,
2013-01-13 22:22:00,70.3,64.9,29.88,ESE,121,3.0,-999.0,83,0.00,,,0.00,PyWeather,2013-01-14 08:22:00,
2013-01-13 22:23:00,70.3,64.9,29.88,ESE,120,3.0,-999.0,83,0.00,,,0.00,PyWeather,2013-01-14 08:23:00,
2013-01-13 22:24:00,70.6,65.6,29.88,ESE,121,4.0,-999.0,84,0.00,,,0.00,PyWeather,2013-01-14 08:24:00,
2013-01-13 22:25:00,70.1,64.7,29.88,ESE,114,2.0,-999.0,83,0.00,,,0.00,PyWeather,2013-01-14 08:25:00,
2013-01-13 22:26:00,70.0,64.6,29.88,ESE,115,2.0,-999.0,83,0.00,,,0.00,PyWeather,2013-01-14 08:26:00,
2013-01-13 22:27:00,69.8,64.5,29.88,ESE,111,1.0,-999.0,83,0.00,,,0.00,PyWeather,2013-01-14 08:27:00,
2013-01-13 22:28:00,69.7,64.4,29.88,ESE,111,1.0,-999.0,83,0.00,,,0.00,PyWeather,2013-01-14 08:28:00,
2013-01-13 22:29:00,69.5,64.2,29.88,ESE,110,1.0,-999.0,83,0.00,,,0.00,PyWeather,2013-01-14 08:29:00,
2013-01-13 22:30:00,70.4,65.0,29.88,ESE,123,5.0,-999.0,83,0.00,,,0.00,PyWeather,2013-01-14 08:30:00,
2013-01-13 22:31:00,69.3,64.0,29.88,ESE,111,1.0,-999.0,83,0.00,,,0.00,PyWeather,2013-01-14 08:31:00,
2013-01-13 22:32:00,69.3,64.0,29.88,ESE,109,1.0,-999.0,83,0.00,,,0.00,PyWeather,2013-01-14 08:32:00,
2013-01-13 22:33:00,69.2,63.9,29.88,ESE,109,1.0,-999.0,83,0.00,,,0.00,PyWeather,2013-01-14 08:33:00,
2013-01-13 22:34:00,69.1,63.8,29.88,ESE,109,1.0,-999.0,83,0.00,,,0.00,PyWeather,2013-01-14 08:34:00,
2013-01-13 22:35:00,70.4,65.0,29.88,ESE,121,4.0,-999.0,83,0.00,,,0.00,PyWeather,2013-01-14 08:35:00,
2013-01-13 22:36:00,69.0,64.0,29.88,ESE,107,2.0,-999.0,84,0.00,,,0.00,PyWeather,2013-01-14 08:36:00,
2013-01-13 22:37:00,68.8,63.5,29.88,ENE,67,2.0,-999.0,83,0.00,,,0.00,PyWeather,2013-01-14 08:37:00,
2013-01-13 22:38:00,68.7,63.4,29.88,NE,53,2.0,-999.0,83,0.00,,,0.00,PyWeather,2013-01-14 08:38:00,
2013-01-13 22:39:00,68.6,63.3,29.88,NE,55,2.0,-999.0,83,0.00,,,0.00,PyWeather,2013-01-14 08:39:00,
2013-01-13 22:40:00,68.5,63.5,29.88,NE,54,2.0,-999.0,84,0.00,,,0.00,PyWeather,2013-01-14 08:40:00,
2013-01-13 22:41:00,69.8,64.5,29.88,ESE,113,2.0,-999.0,83,0.00,,,0.00,PyWeather,2013-01-14 08:41:00,
2013-01-13 22:46:00,68.2,63.5,29.88,NNE,29,3.0,-999.0,85,0.00,,,0.00,PyWeather,2013-01-14 08:46:00,
2013-01-13 22:47:00,69.2,63.9,29.88,ESE,109,1.0,-999.0,83,0.00,,,0.00,PyWeather,2013-01-14 08:47:00,
2013-01-13 22:48:00,68.1,63.4,29.88,NNE,28,3.0,-999.0,85,0.00,,,0.00,PyWeather,2013-01-14 08:48:00,
2013-01-13 22:49:00,68.1,63.4,29.88,NNE,28,3.0,-999.0,85,0.00,,,0.00,PyWeather,2013-01-14 08:49:00,
2013-01-13 22:50:00,68.1,63.4,29.88,NNE,29,3.0,-999.0,85,0.00,,,0.00,PyWeather,2013-01-14 08:50:00,
2013-01-13 22:51:00,68.1,63.4,29.88,NNE,28,3.0,-999.0,85,0.00,,,0.00,PyWeather,2013-01-14 08:51:00,
2013-01-13 22:52:00,68.8,63.5,29.88,NE,54,2.0,-999.0,83,0.00,,,0.00,PyWeather,2013-01-14 08:52:00,
2013-01-13 22:53:00,67.9,63.2,29.88,NNE,28,3.0,-999.0,85,0.00,,,0.00,PyWeather,2013-01-14 08:53:00,
2013-01-13 22:54:00,67.9,63.2,29.88,NNE,29,2.0,-999.0,85,0.00,,,0.00,PyWeather,2013-01-14 08:54:00,
2013-01-13 22:56:00,67.9,63.2,29.88,NNE,29,2.0,-999.0,85,0.00,,,0.00,PyWeather,2013-01-14 08:56:00,
2013-01-13 22:57:00,68.3,63.3,29.88,NE,44,3.0,-999.0,84,0.00,,,0.00,PyWeather,2013-01-14 08:57:00,
2013-01-13 22:59:00,67.9,63.6,29.88,NNE,29,1.0,-999.0,86,0.00,,,0.00,PyWeather,2013-01-14 08:59:00,
2013-01-13 23:00:00,67.9,63.6,29.88,NNE,28,1.0,-999.0,86,0.00,,,0.00,PyWeather,2013-01-14 09:00:00,
2013-01-13 23:01:00,67.9,63.6,29.88,NNE,28,1.0,-999.0,86,0.00,,,0.00,PyWeather,2013-01-14 09:01:00,
2013-01-13 23:02:00,68.1,63.4,29.88,NNE,28,3.0,-999.0,85,0.00,,,0.00,PyWeather,2013-01-14 09:02:00,
2013-01-13 23:03:00,67.9,63.6,29.88,NNE,28,1.0,-999.0,86,0.00,,,0.00,PyWeather,2013-01-14 09:03:00,
2013-01-13 23:04:00,68.0,63.7,29.88,NNE,28,2.0,-999.0,86,0.00,,,0.00,PyWeather,2013-01-14 09:04:00,
2013-01-13 23:05:00,68.0,63.7,29.88,NNE,27,2.0,-999.0,86,0.00,,,0.00,PyWeather,2013-01-14 09:05:00,
2013-01-13 23:06:00,68.1,63.8,29.88,NNE,28,2.0,-999.0,86,0.00,,,0.00,PyWeather,2013-01-14 09:06:00,
2013-01-13 23:07:00,68.0,63.3,29.88,NNE,29,3.0,-999.0,85,0.00,,,0.00,PyWeather,2013-01-14 09:07:00,
2013-01-13 23:09:00,68.3,64.0,29.88,NNE,28,1.0,-999.0,86,0.00,,,0.00,PyWeather,2013-01-14 09:09:00,
2013-01-13 23:11:00,68.3,64.0,29.88,NNE,29,1.0,-999.0,86,0.00,,,0.00,PyWeather,2013-01-14 09:11:00,
2013-01-13 23:12:00,67.9,63.6,29.88,NNE,28,2.0,-999.0,86,0.00,,,0.00,PyWeather,2013-01-14 09:12:00,
2013-01-13 23:17:00,67.9,63.6,29.88,NNE,28,1.0,-999.0,86,0.00,,,0.00,PyWeather,2013-01-14 09:17:00,
2013-01-13 23:22:00,68.2,63.9,29.88,NNE,28,1.0,-999.0,86,0.00,,,0.00,PyWeather,2013-01-14 09:22:00,
2013-01-13 23:27:00,68.4,64.1,29.88,NNE,28,1.0,-999.0,86,0.00,,,0.00,PyWeather,2013-01-14 09:27:00,
2013-01-13 23:28:00,68.0,63.3,29.88,NNE,29,0.0,-999.0,85,0.00,,,0.00,PyWeather,2013-01-14 09:28:00,
2013-01-13 23:29:00,67.9,63.2,29.88,NNE,28,0.0,-999.0,85,0.00,,,0.00,PyWeather,2013-01-14 09:29:00,
2013-01-13 23:30:00,67.9,63.2,29.88,NNE,29,0.0,-999.0,85,0.00,,,0.00,PyWeather,2013-01-14 09:30:00,
2013-01-13 23:31:00,67.8,63.1,29.88,NNE,28,0.0,-999.0,85,0.00,,,0.00,PyWeather,2013-01-14 09:31:00,
2013-01-13 23:32:00,68.4,64.1,29.88,NNE,28,0.0,-999.0,86,0.00,,,0.00,PyWeather,2013-01-14 09:32:00,
2013-01-13 23:33:00,67.7,63.4,29.88,NNE,28,0.0,-999.0,86,0.00,,,0.00,PyWeather,2013-01-14 09:33:00,
2013-01-13 23:34:00,67.7,63.4,29.87,NNE,29,0.0,-999.0,86,0.00,,,0.00,PyWeather,2013-01-14 09:34:00,
2013-01-13 23:35:00,67.8,63.5,29.87,NNE,28,0.0,-999.0,86,0.00,,,0.00,PyWeather,2013-01-14 09:35:00,
2013-01-13 23:36:00,67.8,63.5,29.87,NNE,28,0.0,-999.0,86,0.00,,,0.00,PyWeather,2013-01-14 09:36:00,
2013-01-13 23:37:00,68.3,63.6,29.88,NNE,28,0.0,-999.0,85,0.00,,,0.00,PyWeather,2013-01-14 09:37:00,
2013-01-13 23:38:00,67.8,63.5,29.87,NNE,29,0.0,-999.0,86,0.00,,,0.00,PyWeather,2013-01-14 09:38:00,
2013-01-13 23:39:00,67.8,63.5,29.87,NNE,28,0.0,-999.0,86,0.00,,,0.00,PyWeather,2013-01-14 09:39:00,
2013-01-13 23:40:00,67.8,63.5,29.87,NNE,29,0.0,-999.0,86,0.00,,,0.00,PyWeather,2013-01-14 09:40:00,
2013-01-13 23:42:00,67.8,63.5,29.87,NNE,28,1.0,-999.0,86,0.00,,,0.00,PyWeather,2013-01-14 09:42:00,
2013-01-13 23:43:00,67.8,63.5,29.87,NNE,29,1.0,-999.0,86,0.00,,,0.00,PyWeather,2013-01-14 09:43:00,
2013-01-13 23:44:00,67.9,63.2,29.88,NNE,28,0.0,-999.0,85,0.00,,,0.00,PyWeather,2013-01-14 09:44:00,
2013-01-13 23:45:00,67.7,63.4,29.87,NNE,29,1.0,-999.0,86,0.00,,,0.00,PyWeather,2013-01-14 09:45:00,
2013-01-13 23:46:00,67.7,63.4,29.87,NNE,28,1.0,-999.0,86,0.00,,,0.00,PyWeather,2013-01-14 09:46:00,
2013-01-13 23:47:00,67.7,63.4,29.87,NNE,28,1.0,-999.0,86,0.00,,,0.00,PyWeather,2013-01-14 09:47:00,
2013-01-13 23:48:00,67.7,63.4,29.87,NNE,28,1.0,-999.0,86,0.00,,,0.00,PyWeather,2013-01-14 09:48:00,
2013-01-13 23:49:00,67.8,63.5,29.87,NNE,28,0.0,-999.0,86,0.00,,,0.00,PyWeather,2013-01-14 09:49:00,
2013-01-13 23:50:00,67.8,63.8,29.87,NNE,29,0.0,-999.0,87,0.00,,,0.00,PyWeather,2013-01-14 09:50:00,
2013-01-13 23:51:00,67.9,63.9,29.87,NNE,29,0.0,-999.0,87,0.00,,,0.00,PyWeather,2013-01-14 09:51:00,
2013-01-13 23:52:00,67.9,63.9,29.87,NNE,28,0.0,-999.0,87,0.00,,,0.00,PyWeather,2013-01-14 09:52:00,
2013-01-13 23:53:00,68.0,64.0,29.87,NNE,28,0.0,-999.0,87,0.00,,,0.00,PyWeather,2013-01-14 09:53:00,
2013-01-13 23:54:00,67.8,63.5,29.87,NNE,28,0.0,-999.0,86,0.00,,,0.00,PyWeather,2013-01-14 09:54:00,
2013-01-13 23:55:00,68.0,64.0,29.87,NNE,28,0.0,-999.0,87,0.00,,,0.00,PyWeather,2013-01-14 09:55:00,
2013-01-13 23:56:00,68.1,63.8,29.87,NNE,28,1.0,-999.0,86,0.00,,,0.00,PyWeather,2013-01-14 09:56:00,
2013-01-13 23:57:00,68.1,64.1,29.87,NNE,28,1.0,-999.0,87,0.00,,,0.00,PyWeather,2013-01-14 09:57:00,
2013-01-13 23:58:00,68.2,64.2,29.87,NNE,28,1.0,-999.0,87,0.00,,,0.00,PyWeather,2013-01-14 09:58:00,
2013-01-13 23:59:00,67.7,63.4,29.87,NNE,28,1.0,-999.0,86,0.00,,,0.00,PyWeather,2013-01-14 09:59:00,